<?xml version="1.0" encoding="UTF-8" standalone="no" ?>
<gpx xmlns="http://www.topografix.com/GPX/1/1" xmlns:xsi="http://www.w3.org/2001/XMLSchema-instance" xsi:schemaLocation="http://www.topografix.com/GPX/1/1 http://www.topografix.com/GPX/1/1/gpx.xsd" version="1.1" creator="VisuGPX - https://www.visugpx.com">
  <metadata>
    <name>Pilon du Roi_14/02/2024</name>
    <desc><![CDATA[Boucle de 12 km, dénivelé cumulé 420 m au départ de Mimet]]></desc>
  </metadata>
  <trk>
    <name><![CDATA[Randonnée du 14/02/2024 à 09:39]]></name>
    <trkseg>
      <trkpt lat="43.41067" lon="5.49093">
        <ele>531.9</ele>
        <time>2024-02-14T09:39:23+01:00</time>
      </trkpt>
      <trkpt lat="43.41076" lon="5.49097">
        <ele>530.1</ele>
        <time>2024-02-14T09:41:06+01:00</time>
      </trkpt>
      <trkpt lat="43.41069" lon="5.49089">
        <ele>530.9</ele>
        <time>2024-02-14T09:42:17+01:00</time>
      </trkpt>
      <trkpt lat="43.41064" lon="5.49078">
        <ele>530.7</ele>
        <time>2024-02-14T09:44:27+01:00</time>
      </trkpt>
      <trkpt lat="43.41067" lon="5.4909">
        <ele>531.5</ele>
        <time>2024-02-14T09:45:36+01:00</time>
      </trkpt>
      <trkpt lat="43.41075" lon="5.49097">
        <ele>530.2</ele>
        <time>2024-02-14T09:47:32+01:00</time>
      </trkpt>
      <trkpt lat="43.41069" lon="5.49088">
        <ele>530.8</ele>
        <time>2024-02-14T09:50:14+01:00</time>
      </trkpt>
      <trkpt lat="43.41063" lon="5.49077">
        <ele>530.9</ele>
        <time>2024-02-14T09:51:09+01:00</time>
      </trkpt>
      <trkpt lat="43.41054" lon="5.49072">
        <ele>532.7</ele>
        <time>2024-02-14T09:51:24+01:00</time>
      </trkpt>
      <trkpt lat="43.41051" lon="5.49061">
        <ele>532.9</ele>
        <time>2024-02-14T09:51:34+01:00</time>
      </trkpt>
      <trkpt lat="43.41046" lon="5.4905">
        <ele>533.1</ele>
        <time>2024-02-14T09:51:44+01:00</time>
      </trkpt>
      <trkpt lat="43.41038" lon="5.49041">
        <ele>534.2</ele>
        <time>2024-02-14T09:51:55+01:00</time>
      </trkpt>
      <trkpt lat="43.41029" lon="5.49038">
        <ele>536.9</ele>
        <time>2024-02-14T09:52:05+01:00</time>
      </trkpt>
      <trkpt lat="43.41031" lon="5.49051">
        <ele>537.4</ele>
        <time>2024-02-14T09:52:21+01:00</time>
      </trkpt>
      <trkpt lat="43.41036" lon="5.49062">
        <ele>537.8</ele>
        <time>2024-02-14T09:52:32+01:00</time>
      </trkpt>
      <trkpt lat="43.41041" lon="5.49073">
        <ele>537.9</ele>
        <time>2024-02-14T09:52:42+01:00</time>
      </trkpt>
      <trkpt lat="43.41046" lon="5.49084">
        <ele>537.4</ele>
        <time>2024-02-14T09:52:50+01:00</time>
      </trkpt>
      <trkpt lat="43.41043" lon="5.49096">
        <ele>540.9</ele>
        <time>2024-02-14T09:53:22+01:00</time>
      </trkpt>
      <trkpt lat="43.41043" lon="5.49109">
        <ele>543.4</ele>
        <time>2024-02-14T09:53:35+01:00</time>
      </trkpt>
      <trkpt lat="43.41044" lon="5.49122">
        <ele>544.5</ele>
        <time>2024-02-14T09:53:45+01:00</time>
      </trkpt>
      <trkpt lat="43.41044" lon="5.49135">
        <ele>545.6</ele>
        <time>2024-02-14T09:53:55+01:00</time>
      </trkpt>
      <trkpt lat="43.41046" lon="5.49148">
        <ele>545.8</ele>
        <time>2024-02-14T09:54:04+01:00</time>
      </trkpt>
      <trkpt lat="43.41044" lon="5.49161">
        <ele>547.6</ele>
        <time>2024-02-14T09:54:14+01:00</time>
      </trkpt>
      <trkpt lat="43.41045" lon="5.49174">
        <ele>548.7</ele>
        <time>2024-02-14T09:54:22+01:00</time>
      </trkpt>
      <trkpt lat="43.41048" lon="5.49187">
        <ele>549</ele>
        <time>2024-02-14T09:54:30+01:00</time>
      </trkpt>
      <trkpt lat="43.41048" lon="5.492">
        <ele>550.2</ele>
        <time>2024-02-14T09:54:38+01:00</time>
      </trkpt>
      <trkpt lat="43.4105" lon="5.49213">
        <ele>550.8</ele>
        <time>2024-02-14T09:54:47+01:00</time>
      </trkpt>
      <trkpt lat="43.41049" lon="5.49226">
        <ele>552.1</ele>
        <time>2024-02-14T09:54:56+01:00</time>
      </trkpt>
      <trkpt lat="43.41048" lon="5.4924">
        <ele>553.4</ele>
        <time>2024-02-14T09:55:07+01:00</time>
      </trkpt>
      <trkpt lat="43.41044" lon="5.49253">
        <ele>555.3</ele>
        <time>2024-02-14T09:55:15+01:00</time>
      </trkpt>
      <trkpt lat="43.4104" lon="5.49265">
        <ele>555.8</ele>
        <time>2024-02-14T09:55:27+01:00</time>
      </trkpt>
      <trkpt lat="43.41038" lon="5.49278">
        <ele>555.9</ele>
        <time>2024-02-14T09:55:34+01:00</time>
      </trkpt>
      <trkpt lat="43.41035" lon="5.49292">
        <ele>558</ele>
        <time>2024-02-14T09:55:47+01:00</time>
      </trkpt>
      <trkpt lat="43.41037" lon="5.49305">
        <ele>557.8</ele>
        <time>2024-02-14T09:55:56+01:00</time>
      </trkpt>
      <trkpt lat="43.41037" lon="5.49318">
        <ele>557.2</ele>
        <time>2024-02-14T09:56:04+01:00</time>
      </trkpt>
      <trkpt lat="43.41035" lon="5.4933">
        <ele>558.2</ele>
        <time>2024-02-14T09:56:13+01:00</time>
      </trkpt>
      <trkpt lat="43.41031" lon="5.49345">
        <ele>558.7</ele>
        <time>2024-02-14T09:56:22+01:00</time>
      </trkpt>
      <trkpt lat="43.41027" lon="5.49358">
        <ele>559.7</ele>
        <time>2024-02-14T09:56:32+01:00</time>
      </trkpt>
      <trkpt lat="43.41023" lon="5.49369">
        <ele>561</ele>
        <time>2024-02-14T09:56:41+01:00</time>
      </trkpt>
      <trkpt lat="43.41019" lon="5.4938">
        <ele>561.8</ele>
        <time>2024-02-14T09:56:49+01:00</time>
      </trkpt>
      <trkpt lat="43.41011" lon="5.4939">
        <ele>563.7</ele>
        <time>2024-02-14T09:56:57+01:00</time>
      </trkpt>
      <trkpt lat="43.41007" lon="5.49404">
        <ele>562.9</ele>
        <time>2024-02-14T09:57:07+01:00</time>
      </trkpt>
      <trkpt lat="43.41001" lon="5.49414">
        <ele>564</ele>
        <time>2024-02-14T09:57:19+01:00</time>
      </trkpt>
      <trkpt lat="43.40994" lon="5.49424">
        <ele>565</ele>
        <time>2024-02-14T09:57:28+01:00</time>
      </trkpt>
      <trkpt lat="43.40987" lon="5.49434">
        <ele>566.2</ele>
        <time>2024-02-14T09:57:38+01:00</time>
      </trkpt>
      <trkpt lat="43.4098" lon="5.49443">
        <ele>567.8</ele>
        <time>2024-02-14T09:57:49+01:00</time>
      </trkpt>
      <trkpt lat="43.40975" lon="5.49453">
        <ele>569.8</ele>
        <time>2024-02-14T09:57:56+01:00</time>
      </trkpt>
      <trkpt lat="43.40969" lon="5.49465">
        <ele>572.5</ele>
        <time>2024-02-14T09:58:06+01:00</time>
      </trkpt>
      <trkpt lat="43.4097" lon="5.49478">
        <ele>572.1</ele>
        <time>2024-02-14T09:58:17+01:00</time>
      </trkpt>
      <trkpt lat="43.40969" lon="5.49491">
        <ele>571.9</ele>
        <time>2024-02-14T09:58:28+01:00</time>
      </trkpt>
      <trkpt lat="43.40963" lon="5.49501">
        <ele>573.5</ele>
        <time>2024-02-14T09:58:36+01:00</time>
      </trkpt>
      <trkpt lat="43.40955" lon="5.49509">
        <ele>574</ele>
        <time>2024-02-14T09:58:45+01:00</time>
      </trkpt>
      <trkpt lat="43.4095" lon="5.49519">
        <ele>573</ele>
        <time>2024-02-14T09:58:56+01:00</time>
      </trkpt>
      <trkpt lat="43.40942" lon="5.49524">
        <ele>574.3</ele>
        <time>2024-02-14T09:59:03+01:00</time>
      </trkpt>
      <trkpt lat="43.40933" lon="5.4953">
        <ele>576.2</ele>
        <time>2024-02-14T09:59:09+01:00</time>
      </trkpt>
      <trkpt lat="43.40929" lon="5.49542">
        <ele>576.1</ele>
        <time>2024-02-14T09:59:21+01:00</time>
      </trkpt>
      <trkpt lat="43.40928" lon="5.49555">
        <ele>575.2</ele>
        <time>2024-02-14T09:59:30+01:00</time>
      </trkpt>
      <trkpt lat="43.40927" lon="5.49568">
        <ele>575.6</ele>
        <time>2024-02-14T09:59:38+01:00</time>
      </trkpt>
      <trkpt lat="43.40928" lon="5.4958">
        <ele>574.3</ele>
        <time>2024-02-14T09:59:47+01:00</time>
      </trkpt>
      <trkpt lat="43.40927" lon="5.49595">
        <ele>573.7</ele>
        <time>2024-02-14T09:59:56+01:00</time>
      </trkpt>
      <trkpt lat="43.40925" lon="5.49607">
        <ele>573.5</ele>
        <time>2024-02-14T10:00:05+01:00</time>
      </trkpt>
      <trkpt lat="43.40922" lon="5.49619">
        <ele>572.7</ele>
        <time>2024-02-14T10:00:13+01:00</time>
      </trkpt>
      <trkpt lat="43.40917" lon="5.49631">
        <ele>572.6</ele>
        <time>2024-02-14T10:00:21+01:00</time>
      </trkpt>
      <trkpt lat="43.40911" lon="5.4964">
        <ele>573.4</ele>
        <time>2024-02-14T10:00:27+01:00</time>
      </trkpt>
      <trkpt lat="43.40905" lon="5.4965">
        <ele>574</ele>
        <time>2024-02-14T10:00:36+01:00</time>
      </trkpt>
      <trkpt lat="43.40899" lon="5.49661">
        <ele>573.1</ele>
        <time>2024-02-14T10:00:44+01:00</time>
      </trkpt>
      <trkpt lat="43.40897" lon="5.49645">
        <ele>578.3</ele>
        <time>2024-02-14T10:01:01+01:00</time>
      </trkpt>
      <trkpt lat="43.40893" lon="5.49656">
        <ele>576.5</ele>
        <time>2024-02-14T10:01:05+01:00</time>
      </trkpt>
      <trkpt lat="43.40886" lon="5.49665">
        <ele>575.6</ele>
        <time>2024-02-14T10:01:08+01:00</time>
      </trkpt>
      <trkpt lat="43.40878" lon="5.49672">
        <ele>575.5</ele>
        <time>2024-02-14T10:01:15+01:00</time>
      </trkpt>
      <trkpt lat="43.40873" lon="5.49683">
        <ele>574.9</ele>
        <time>2024-02-14T10:01:26+01:00</time>
      </trkpt>
      <trkpt lat="43.40871" lon="5.49696">
        <ele>573.6</ele>
        <time>2024-02-14T10:01:35+01:00</time>
      </trkpt>
      <trkpt lat="43.4087" lon="5.4971">
        <ele>572.4</ele>
        <time>2024-02-14T10:01:45+01:00</time>
      </trkpt>
      <trkpt lat="43.40868" lon="5.49722">
        <ele>571.5</ele>
        <time>2024-02-14T10:01:53+01:00</time>
      </trkpt>
      <trkpt lat="43.40866" lon="5.49735">
        <ele>571.9</ele>
        <time>2024-02-14T10:02:02+01:00</time>
      </trkpt>
      <trkpt lat="43.4087" lon="5.49748">
        <ele>570.2</ele>
        <time>2024-02-14T10:02:12+01:00</time>
      </trkpt>
      <trkpt lat="43.40871" lon="5.4976">
        <ele>568.1</ele>
        <time>2024-02-14T10:02:20+01:00</time>
      </trkpt>
      <trkpt lat="43.40866" lon="5.49771">
        <ele>568.5</ele>
        <time>2024-02-14T10:02:29+01:00</time>
      </trkpt>
      <trkpt lat="43.40858" lon="5.49777">
        <ele>570.3</ele>
        <time>2024-02-14T10:02:36+01:00</time>
      </trkpt>
      <trkpt lat="43.40851" lon="5.49786">
        <ele>570.5</ele>
        <time>2024-02-14T10:02:46+01:00</time>
      </trkpt>
      <trkpt lat="43.40844" lon="5.49797">
        <ele>570.7</ele>
        <time>2024-02-14T10:02:56+01:00</time>
      </trkpt>
      <trkpt lat="43.40845" lon="5.49809">
        <ele>569.1</ele>
        <time>2024-02-14T10:03:03+01:00</time>
      </trkpt>
      <trkpt lat="43.4085" lon="5.4982">
        <ele>568.9</ele>
        <time>2024-02-14T10:03:18+01:00</time>
      </trkpt>
      <trkpt lat="43.40853" lon="5.49833">
        <ele>569.9</ele>
        <time>2024-02-14T10:03:28+01:00</time>
      </trkpt>
      <trkpt lat="43.40856" lon="5.49845">
        <ele>569.2</ele>
        <time>2024-02-14T10:03:36+01:00</time>
      </trkpt>
      <trkpt lat="43.40857" lon="5.49857">
        <ele>569.9</ele>
        <time>2024-02-14T10:03:45+01:00</time>
      </trkpt>
      <trkpt lat="43.4085" lon="5.49867">
        <ele>570.8</ele>
        <time>2024-02-14T10:03:53+01:00</time>
      </trkpt>
      <trkpt lat="43.40843" lon="5.49875">
        <ele>570.3</ele>
        <time>2024-02-14T10:04:03+01:00</time>
      </trkpt>
      <trkpt lat="43.40836" lon="5.49884">
        <ele>569.8</ele>
        <time>2024-02-14T10:04:12+01:00</time>
      </trkpt>
      <trkpt lat="43.40835" lon="5.49898">
        <ele>569.2</ele>
        <time>2024-02-14T10:04:22+01:00</time>
      </trkpt>
      <trkpt lat="43.40839" lon="5.4991">
        <ele>568.6</ele>
        <time>2024-02-14T10:04:31+01:00</time>
      </trkpt>
      <trkpt lat="43.40841" lon="5.49923">
        <ele>568.5</ele>
        <time>2024-02-14T10:04:42+01:00</time>
      </trkpt>
      <trkpt lat="43.40846" lon="5.49935">
        <ele>567.6</ele>
        <time>2024-02-14T10:04:51+01:00</time>
      </trkpt>
      <trkpt lat="43.40846" lon="5.49948">
        <ele>568</ele>
        <time>2024-02-14T10:05:00+01:00</time>
      </trkpt>
      <trkpt lat="43.40845" lon="5.49961">
        <ele>565.8</ele>
        <time>2024-02-14T10:05:28+01:00</time>
      </trkpt>
      <trkpt lat="43.40835" lon="5.49962">
        <ele>569.2</ele>
        <time>2024-02-14T10:05:35+01:00</time>
      </trkpt>
      <trkpt lat="43.40826" lon="5.49969">
        <ele>569.9</ele>
        <time>2024-02-14T10:05:43+01:00</time>
      </trkpt>
      <trkpt lat="43.40817" lon="5.49977">
        <ele>569.4</ele>
        <time>2024-02-14T10:05:53+01:00</time>
      </trkpt>
      <trkpt lat="43.40808" lon="5.49984">
        <ele>569.2</ele>
        <time>2024-02-14T10:06:02+01:00</time>
      </trkpt>
      <trkpt lat="43.40798" lon="5.4999">
        <ele>569.6</ele>
        <time>2024-02-14T10:06:11+01:00</time>
      </trkpt>
      <trkpt lat="43.4079" lon="5.49998">
        <ele>569.3</ele>
        <time>2024-02-14T10:06:19+01:00</time>
      </trkpt>
      <trkpt lat="43.40783" lon="5.50006">
        <ele>568.6</ele>
        <time>2024-02-14T10:06:28+01:00</time>
      </trkpt>
      <trkpt lat="43.40774" lon="5.50012">
        <ele>569</ele>
        <time>2024-02-14T10:06:37+01:00</time>
      </trkpt>
      <trkpt lat="43.40767" lon="5.50018">
        <ele>568.8</ele>
        <time>2024-02-14T10:06:44+01:00</time>
      </trkpt>
      <trkpt lat="43.40758" lon="5.50024">
        <ele>569</ele>
        <time>2024-02-14T10:06:52+01:00</time>
      </trkpt>
      <trkpt lat="43.4075" lon="5.5003">
        <ele>569.6</ele>
        <time>2024-02-14T10:07:01+01:00</time>
      </trkpt>
      <trkpt lat="43.4074" lon="5.50033">
        <ele>572.4</ele>
        <time>2024-02-14T10:07:10+01:00</time>
      </trkpt>
      <trkpt lat="43.40733" lon="5.50042">
        <ele>572</ele>
        <time>2024-02-14T10:07:17+01:00</time>
      </trkpt>
      <trkpt lat="43.40725" lon="5.5005">
        <ele>571.4</ele>
        <time>2024-02-14T10:07:28+01:00</time>
      </trkpt>
      <trkpt lat="43.40721" lon="5.50061">
        <ele>570.5</ele>
        <time>2024-02-14T10:07:40+01:00</time>
      </trkpt>
      <trkpt lat="43.4072" lon="5.50073">
        <ele>570.1</ele>
        <time>2024-02-14T10:07:48+01:00</time>
      </trkpt>
      <trkpt lat="43.40718" lon="5.50086">
        <ele>570.9</ele>
        <time>2024-02-14T10:07:57+01:00</time>
      </trkpt>
      <trkpt lat="43.40719" lon="5.50099">
        <ele>571.2</ele>
        <time>2024-02-14T10:08:06+01:00</time>
      </trkpt>
      <trkpt lat="43.40717" lon="5.50113">
        <ele>572.6</ele>
        <time>2024-02-14T10:08:16+01:00</time>
      </trkpt>
      <trkpt lat="43.40716" lon="5.50127">
        <ele>572.4</ele>
        <time>2024-02-14T10:08:24+01:00</time>
      </trkpt>
      <trkpt lat="43.40717" lon="5.5014">
        <ele>571.2</ele>
        <time>2024-02-14T10:08:34+01:00</time>
      </trkpt>
      <trkpt lat="43.40717" lon="5.50153">
        <ele>571.2</ele>
        <time>2024-02-14T10:08:42+01:00</time>
      </trkpt>
      <trkpt lat="43.40714" lon="5.50165">
        <ele>573</ele>
        <time>2024-02-14T10:08:50+01:00</time>
      </trkpt>
      <trkpt lat="43.40709" lon="5.50177">
        <ele>573.8</ele>
        <time>2024-02-14T10:08:58+01:00</time>
      </trkpt>
      <trkpt lat="43.40706" lon="5.50189">
        <ele>573.6</ele>
        <time>2024-02-14T10:09:06+01:00</time>
      </trkpt>
      <trkpt lat="43.40703" lon="5.50202">
        <ele>572.9</ele>
        <time>2024-02-14T10:09:13+01:00</time>
      </trkpt>
      <trkpt lat="43.40699" lon="5.50214">
        <ele>573.4</ele>
        <time>2024-02-14T10:09:22+01:00</time>
      </trkpt>
      <trkpt lat="43.40696" lon="5.50226">
        <ele>573.5</ele>
        <time>2024-02-14T10:09:30+01:00</time>
      </trkpt>
      <trkpt lat="43.40694" lon="5.50238">
        <ele>573.6</ele>
        <time>2024-02-14T10:09:40+01:00</time>
      </trkpt>
      <trkpt lat="43.40692" lon="5.50251">
        <ele>573.7</ele>
        <time>2024-02-14T10:09:50+01:00</time>
      </trkpt>
      <trkpt lat="43.40692" lon="5.50265">
        <ele>574.3</ele>
        <time>2024-02-14T10:09:58+01:00</time>
      </trkpt>
      <trkpt lat="43.40692" lon="5.50278">
        <ele>574.6</ele>
        <time>2024-02-14T10:10:08+01:00</time>
      </trkpt>
      <trkpt lat="43.4069" lon="5.50291">
        <ele>574.5</ele>
        <time>2024-02-14T10:10:16+01:00</time>
      </trkpt>
      <trkpt lat="43.40687" lon="5.50304">
        <ele>575</ele>
        <time>2024-02-14T10:10:26+01:00</time>
      </trkpt>
      <trkpt lat="43.40685" lon="5.50316">
        <ele>575.8</ele>
        <time>2024-02-14T10:10:35+01:00</time>
      </trkpt>
      <trkpt lat="43.40686" lon="5.50329">
        <ele>575.7</ele>
        <time>2024-02-14T10:10:49+01:00</time>
      </trkpt>
      <trkpt lat="43.40681" lon="5.50341">
        <ele>577.9</ele>
        <time>2024-02-14T10:10:59+01:00</time>
      </trkpt>
      <trkpt lat="43.40677" lon="5.50353">
        <ele>579</ele>
        <time>2024-02-14T10:11:10+01:00</time>
      </trkpt>
      <trkpt lat="43.40668" lon="5.5036">
        <ele>583.2</ele>
        <time>2024-02-14T10:11:19+01:00</time>
      </trkpt>
      <trkpt lat="43.40662" lon="5.50369">
        <ele>586.7</ele>
        <time>2024-02-14T10:11:31+01:00</time>
      </trkpt>
      <trkpt lat="43.40661" lon="5.50382">
        <ele>587.3</ele>
        <time>2024-02-14T10:11:44+01:00</time>
      </trkpt>
      <trkpt lat="43.40663" lon="5.50394">
        <ele>588.5</ele>
        <time>2024-02-14T10:11:53+01:00</time>
      </trkpt>
      <trkpt lat="43.4067" lon="5.50403">
        <ele>587.3</ele>
        <time>2024-02-14T10:12:08+01:00</time>
      </trkpt>
      <trkpt lat="43.40673" lon="5.50415">
        <ele>589.1</ele>
        <time>2024-02-14T10:12:20+01:00</time>
      </trkpt>
      <trkpt lat="43.40673" lon="5.50427">
        <ele>589.9</ele>
        <time>2024-02-14T10:12:29+01:00</time>
      </trkpt>
      <trkpt lat="43.40671" lon="5.5044">
        <ele>592.2</ele>
        <time>2024-02-14T10:12:38+01:00</time>
      </trkpt>
      <trkpt lat="43.4067" lon="5.50453">
        <ele>594.2</ele>
        <time>2024-02-14T10:12:48+01:00</time>
      </trkpt>
      <trkpt lat="43.40672" lon="5.50467">
        <ele>595.2</ele>
        <time>2024-02-14T10:13:00+01:00</time>
      </trkpt>
      <trkpt lat="43.40675" lon="5.50479">
        <ele>594.6</ele>
        <time>2024-02-14T10:13:09+01:00</time>
      </trkpt>
      <trkpt lat="43.40675" lon="5.50493">
        <ele>595.2</ele>
        <time>2024-02-14T10:13:19+01:00</time>
      </trkpt>
      <trkpt lat="43.40672" lon="5.50505">
        <ele>598</ele>
        <time>2024-02-14T10:13:29+01:00</time>
      </trkpt>
      <trkpt lat="43.40668" lon="5.50517">
        <ele>599.7</ele>
        <time>2024-02-14T10:13:39+01:00</time>
      </trkpt>
      <trkpt lat="43.40669" lon="5.50531">
        <ele>599</ele>
        <time>2024-02-14T10:13:47+01:00</time>
      </trkpt>
      <trkpt lat="43.40668" lon="5.50544">
        <ele>600.6</ele>
        <time>2024-02-14T10:13:57+01:00</time>
      </trkpt>
      <trkpt lat="43.40671" lon="5.50556">
        <ele>599.6</ele>
        <time>2024-02-14T10:14:07+01:00</time>
      </trkpt>
      <trkpt lat="43.40672" lon="5.50569">
        <ele>598.9</ele>
        <time>2024-02-14T10:14:14+01:00</time>
      </trkpt>
      <trkpt lat="43.40668" lon="5.5058">
        <ele>601.2</ele>
        <time>2024-02-14T10:14:22+01:00</time>
      </trkpt>
      <trkpt lat="43.40663" lon="5.50592">
        <ele>604.5</ele>
        <time>2024-02-14T10:14:34+01:00</time>
      </trkpt>
      <trkpt lat="43.4066" lon="5.50606">
        <ele>605.9</ele>
        <time>2024-02-14T10:14:47+01:00</time>
      </trkpt>
      <trkpt lat="43.40658" lon="5.50618">
        <ele>607.4</ele>
        <time>2024-02-14T10:14:55+01:00</time>
      </trkpt>
      <trkpt lat="43.40661" lon="5.50631">
        <ele>607.6</ele>
        <time>2024-02-14T10:15:07+01:00</time>
      </trkpt>
      <trkpt lat="43.40661" lon="5.50644">
        <ele>608.9</ele>
        <time>2024-02-14T10:15:16+01:00</time>
      </trkpt>
      <trkpt lat="43.40661" lon="5.50657">
        <ele>610.4</ele>
        <time>2024-02-14T10:15:25+01:00</time>
      </trkpt>
      <trkpt lat="43.40664" lon="5.50669">
        <ele>610</ele>
        <time>2024-02-14T10:15:35+01:00</time>
      </trkpt>
      <trkpt lat="43.40664" lon="5.50681">
        <ele>610.8</ele>
        <time>2024-02-14T10:15:44+01:00</time>
      </trkpt>
      <trkpt lat="43.40662" lon="5.50693">
        <ele>612.7</ele>
        <time>2024-02-14T10:15:54+01:00</time>
      </trkpt>
      <trkpt lat="43.40661" lon="5.50706">
        <ele>613.8</ele>
        <time>2024-02-14T10:16:04+01:00</time>
      </trkpt>
      <trkpt lat="43.4066" lon="5.50719">
        <ele>615.1</ele>
        <time>2024-02-14T10:16:13+01:00</time>
      </trkpt>
      <trkpt lat="43.40657" lon="5.50731">
        <ele>618.1</ele>
        <time>2024-02-14T10:16:23+01:00</time>
      </trkpt>
      <trkpt lat="43.40659" lon="5.50745">
        <ele>619.3</ele>
        <time>2024-02-14T10:16:32+01:00</time>
      </trkpt>
      <trkpt lat="43.40661" lon="5.50758">
        <ele>619.8</ele>
        <time>2024-02-14T10:16:41+01:00</time>
      </trkpt>
      <trkpt lat="43.40659" lon="5.50771">
        <ele>622</ele>
        <time>2024-02-14T10:16:53+01:00</time>
      </trkpt>
      <trkpt lat="43.40661" lon="5.50784">
        <ele>622.9</ele>
        <time>2024-02-14T10:17:03+01:00</time>
      </trkpt>
      <trkpt lat="43.40663" lon="5.50797">
        <ele>624.4</ele>
        <time>2024-02-14T10:17:11+01:00</time>
      </trkpt>
      <trkpt lat="43.40664" lon="5.5081">
        <ele>626.1</ele>
        <time>2024-02-14T10:17:20+01:00</time>
      </trkpt>
      <trkpt lat="43.40665" lon="5.50822">
        <ele>627.4</ele>
        <time>2024-02-14T10:17:30+01:00</time>
      </trkpt>
      <trkpt lat="43.40668" lon="5.50834">
        <ele>628.6</ele>
        <time>2024-02-14T10:17:41+01:00</time>
      </trkpt>
      <trkpt lat="43.40678" lon="5.50834">
        <ele>631.9</ele>
        <time>2024-02-14T10:17:53+01:00</time>
      </trkpt>
      <trkpt lat="43.40686" lon="5.50828">
        <ele>632.8</ele>
        <time>2024-02-14T10:18:05+01:00</time>
      </trkpt>
      <trkpt lat="43.40695" lon="5.50823">
        <ele>633.3</ele>
        <time>2024-02-14T10:18:16+01:00</time>
      </trkpt>
      <trkpt lat="43.40704" lon="5.50817">
        <ele>635.1</ele>
        <time>2024-02-14T10:18:26+01:00</time>
      </trkpt>
      <trkpt lat="43.40712" lon="5.50809">
        <ele>636.2</ele>
        <time>2024-02-14T10:18:38+01:00</time>
      </trkpt>
      <trkpt lat="43.4072" lon="5.50802">
        <ele>637.4</ele>
        <time>2024-02-14T10:18:48+01:00</time>
      </trkpt>
      <trkpt lat="43.40728" lon="5.50795">
        <ele>639.2</ele>
        <time>2024-02-14T10:18:59+01:00</time>
      </trkpt>
      <trkpt lat="43.40736" lon="5.50788">
        <ele>641</ele>
        <time>2024-02-14T10:19:08+01:00</time>
      </trkpt>
      <trkpt lat="43.40744" lon="5.50783">
        <ele>642.5</ele>
        <time>2024-02-14T10:19:18+01:00</time>
      </trkpt>
      <trkpt lat="43.40753" lon="5.50774">
        <ele>641.9</ele>
        <time>2024-02-14T10:19:30+01:00</time>
      </trkpt>
      <trkpt lat="43.40762" lon="5.50772">
        <ele>642.4</ele>
        <time>2024-02-14T10:19:41+01:00</time>
      </trkpt>
      <trkpt lat="43.40771" lon="5.50773">
        <ele>644</ele>
        <time>2024-02-14T10:19:53+01:00</time>
      </trkpt>
      <trkpt lat="43.4078" lon="5.50775">
        <ele>645.9</ele>
        <time>2024-02-14T10:20:48+01:00</time>
      </trkpt>
      <trkpt lat="43.40788" lon="5.50781">
        <ele>645.5</ele>
        <time>2024-02-14T10:22:19+01:00</time>
      </trkpt>
      <trkpt lat="43.40795" lon="5.5079">
        <ele>646.5</ele>
        <time>2024-02-14T10:22:29+01:00</time>
      </trkpt>
      <trkpt lat="43.40802" lon="5.50798">
        <ele>646.8</ele>
        <time>2024-02-14T10:22:39+01:00</time>
      </trkpt>
      <trkpt lat="43.40807" lon="5.50809">
        <ele>649.2</ele>
        <time>2024-02-14T10:22:50+01:00</time>
      </trkpt>
      <trkpt lat="43.40816" lon="5.50815">
        <ele>649.1</ele>
        <time>2024-02-14T10:22:58+01:00</time>
      </trkpt>
      <trkpt lat="43.40825" lon="5.5082">
        <ele>648.5</ele>
        <time>2024-02-14T10:23:07+01:00</time>
      </trkpt>
      <trkpt lat="43.4083" lon="5.50831">
        <ele>651.2</ele>
        <time>2024-02-14T10:23:18+01:00</time>
      </trkpt>
      <trkpt lat="43.40835" lon="5.50842">
        <ele>650.5</ele>
        <time>2024-02-14T10:23:27+01:00</time>
      </trkpt>
      <trkpt lat="43.40835" lon="5.50855">
        <ele>650.9</ele>
        <time>2024-02-14T10:23:36+01:00</time>
      </trkpt>
      <trkpt lat="43.40835" lon="5.50868">
        <ele>651.7</ele>
        <time>2024-02-14T10:23:45+01:00</time>
      </trkpt>
      <trkpt lat="43.40837" lon="5.50881">
        <ele>652.1</ele>
        <time>2024-02-14T10:23:56+01:00</time>
      </trkpt>
      <trkpt lat="43.40838" lon="5.50894">
        <ele>652.6</ele>
        <time>2024-02-14T10:24:04+01:00</time>
      </trkpt>
      <trkpt lat="43.40841" lon="5.50906">
        <ele>651.6</ele>
        <time>2024-02-14T10:24:14+01:00</time>
      </trkpt>
      <trkpt lat="43.4084" lon="5.5092">
        <ele>653.5</ele>
        <time>2024-02-14T10:24:25+01:00</time>
      </trkpt>
      <trkpt lat="43.4084" lon="5.50934">
        <ele>655.5</ele>
        <time>2024-02-14T10:24:34+01:00</time>
      </trkpt>
      <trkpt lat="43.4084" lon="5.50947">
        <ele>657.9</ele>
        <time>2024-02-14T10:24:45+01:00</time>
      </trkpt>
      <trkpt lat="43.40848" lon="5.50953">
        <ele>658.8</ele>
        <time>2024-02-14T10:24:56+01:00</time>
      </trkpt>
      <trkpt lat="43.40857" lon="5.50959">
        <ele>659.5</ele>
        <time>2024-02-14T10:25:05+01:00</time>
      </trkpt>
      <trkpt lat="43.40864" lon="5.50967">
        <ele>661.2</ele>
        <time>2024-02-14T10:25:17+01:00</time>
      </trkpt>
      <trkpt lat="43.40871" lon="5.50975">
        <ele>661.9</ele>
        <time>2024-02-14T10:25:26+01:00</time>
      </trkpt>
      <trkpt lat="43.40879" lon="5.50983">
        <ele>662.4</ele>
        <time>2024-02-14T10:25:36+01:00</time>
      </trkpt>
      <trkpt lat="43.40886" lon="5.50992">
        <ele>662.5</ele>
        <time>2024-02-14T10:25:46+01:00</time>
      </trkpt>
      <trkpt lat="43.4089" lon="5.51003">
        <ele>664.4</ele>
        <time>2024-02-14T10:26:02+01:00</time>
      </trkpt>
      <trkpt lat="43.40894" lon="5.51015">
        <ele>664.9</ele>
        <time>2024-02-14T10:26:12+01:00</time>
      </trkpt>
      <trkpt lat="43.40897" lon="5.51027">
        <ele>666.2</ele>
        <time>2024-02-14T10:26:22+01:00</time>
      </trkpt>
      <trkpt lat="43.409" lon="5.51039">
        <ele>667.4</ele>
        <time>2024-02-14T10:26:32+01:00</time>
      </trkpt>
      <trkpt lat="43.40904" lon="5.51051">
        <ele>668.6</ele>
        <time>2024-02-14T10:26:42+01:00</time>
      </trkpt>
      <trkpt lat="43.40907" lon="5.51064">
        <ele>670.1</ele>
        <time>2024-02-14T10:26:52+01:00</time>
      </trkpt>
      <trkpt lat="43.40908" lon="5.51076">
        <ele>671.8</ele>
        <time>2024-02-14T10:27:01+01:00</time>
      </trkpt>
      <trkpt lat="43.40913" lon="5.51087">
        <ele>671.8</ele>
        <time>2024-02-14T10:27:09+01:00</time>
      </trkpt>
      <trkpt lat="43.40914" lon="5.51101">
        <ele>672.8</ele>
        <time>2024-02-14T10:27:18+01:00</time>
      </trkpt>
      <trkpt lat="43.40915" lon="5.51113">
        <ele>673.9</ele>
        <time>2024-02-14T10:27:27+01:00</time>
      </trkpt>
      <trkpt lat="43.40916" lon="5.51126">
        <ele>675.1</ele>
        <time>2024-02-14T10:27:36+01:00</time>
      </trkpt>
      <trkpt lat="43.40918" lon="5.51138">
        <ele>674.4</ele>
        <time>2024-02-14T10:27:45+01:00</time>
      </trkpt>
      <trkpt lat="43.40918" lon="5.5115">
        <ele>675.5</ele>
        <time>2024-02-14T10:27:59+01:00</time>
      </trkpt>
      <trkpt lat="43.4092" lon="5.51164">
        <ele>675.4</ele>
        <time>2024-02-14T10:28:10+01:00</time>
      </trkpt>
      <trkpt lat="43.40918" lon="5.51176">
        <ele>677.8</ele>
        <time>2024-02-14T10:28:30+01:00</time>
      </trkpt>
      <trkpt lat="43.40913" lon="5.51187">
        <ele>680.3</ele>
        <time>2024-02-14T10:32:02+01:00</time>
      </trkpt>
      <trkpt lat="43.40909" lon="5.51198">
        <ele>681.6</ele>
        <time>2024-02-14T10:32:12+01:00</time>
      </trkpt>
      <trkpt lat="43.40907" lon="5.51211">
        <ele>682.5</ele>
        <time>2024-02-14T10:32:22+01:00</time>
      </trkpt>
      <trkpt lat="43.40907" lon="5.51224">
        <ele>682.3</ele>
        <time>2024-02-14T10:32:30+01:00</time>
      </trkpt>
      <trkpt lat="43.40905" lon="5.51236">
        <ele>680.5</ele>
        <time>2024-02-14T10:32:39+01:00</time>
      </trkpt>
      <trkpt lat="43.40901" lon="5.51248">
        <ele>680.8</ele>
        <time>2024-02-14T10:32:47+01:00</time>
      </trkpt>
      <trkpt lat="43.40898" lon="5.51262">
        <ele>681.7</ele>
        <time>2024-02-14T10:32:56+01:00</time>
      </trkpt>
      <trkpt lat="43.40897" lon="5.51276">
        <ele>682</ele>
        <time>2024-02-14T10:33:05+01:00</time>
      </trkpt>
      <trkpt lat="43.40894" lon="5.51289">
        <ele>683</ele>
        <time>2024-02-14T10:33:14+01:00</time>
      </trkpt>
      <trkpt lat="43.40891" lon="5.51301">
        <ele>684</ele>
        <time>2024-02-14T10:33:25+01:00</time>
      </trkpt>
      <trkpt lat="43.40885" lon="5.51312">
        <ele>685.2</ele>
        <time>2024-02-14T10:33:33+01:00</time>
      </trkpt>
      <trkpt lat="43.40878" lon="5.51322">
        <ele>685</ele>
        <time>2024-02-14T10:33:42+01:00</time>
      </trkpt>
      <trkpt lat="43.40869" lon="5.51327">
        <ele>686.4</ele>
        <time>2024-02-14T10:33:49+01:00</time>
      </trkpt>
      <trkpt lat="43.4086" lon="5.51333">
        <ele>686.5</ele>
        <time>2024-02-14T10:33:56+01:00</time>
      </trkpt>
      <trkpt lat="43.40852" lon="5.51339">
        <ele>687.8</ele>
        <time>2024-02-14T10:34:03+01:00</time>
      </trkpt>
      <trkpt lat="43.40847" lon="5.51351">
        <ele>687.6</ele>
        <time>2024-02-14T10:34:14+01:00</time>
      </trkpt>
      <trkpt lat="43.40847" lon="5.51364">
        <ele>685.5</ele>
        <time>2024-02-14T10:34:23+01:00</time>
      </trkpt>
      <trkpt lat="43.40845" lon="5.51377">
        <ele>686</ele>
        <time>2024-02-14T10:34:31+01:00</time>
      </trkpt>
      <trkpt lat="43.40845" lon="5.51391">
        <ele>685.9</ele>
        <time>2024-02-14T10:34:40+01:00</time>
      </trkpt>
      <trkpt lat="43.40842" lon="5.51404">
        <ele>685.9</ele>
        <time>2024-02-14T10:34:48+01:00</time>
      </trkpt>
      <trkpt lat="43.40839" lon="5.51416">
        <ele>685.8</ele>
        <time>2024-02-14T10:34:55+01:00</time>
      </trkpt>
      <trkpt lat="43.40835" lon="5.51427">
        <ele>685.9</ele>
        <time>2024-02-14T10:35:04+01:00</time>
      </trkpt>
      <trkpt lat="43.4083" lon="5.5144">
        <ele>686.3</ele>
        <time>2024-02-14T10:35:12+01:00</time>
      </trkpt>
      <trkpt lat="43.40824" lon="5.51449">
        <ele>686.3</ele>
        <time>2024-02-14T10:35:20+01:00</time>
      </trkpt>
      <trkpt lat="43.40816" lon="5.51458">
        <ele>686.5</ele>
        <time>2024-02-14T10:35:29+01:00</time>
      </trkpt>
      <trkpt lat="43.40807" lon="5.51463">
        <ele>687.7</ele>
        <time>2024-02-14T10:35:36+01:00</time>
      </trkpt>
      <trkpt lat="43.40798" lon="5.51468">
        <ele>687.7</ele>
        <time>2024-02-14T10:35:43+01:00</time>
      </trkpt>
      <trkpt lat="43.40788" lon="5.51471">
        <ele>688.6</ele>
        <time>2024-02-14T10:35:52+01:00</time>
      </trkpt>
      <trkpt lat="43.40779" lon="5.51471">
        <ele>690.1</ele>
        <time>2024-02-14T10:36:01+01:00</time>
      </trkpt>
      <trkpt lat="43.40769" lon="5.51468">
        <ele>690.5</ele>
        <time>2024-02-14T10:36:10+01:00</time>
      </trkpt>
      <trkpt lat="43.40758" lon="5.51465">
        <ele>690.7</ele>
        <time>2024-02-14T10:36:18+01:00</time>
      </trkpt>
      <trkpt lat="43.4075" lon="5.5146">
        <ele>692.1</ele>
        <time>2024-02-14T10:36:27+01:00</time>
      </trkpt>
      <trkpt lat="43.4074" lon="5.51456">
        <ele>694.4</ele>
        <time>2024-02-14T10:36:36+01:00</time>
      </trkpt>
      <trkpt lat="43.4073" lon="5.5146">
        <ele>694.8</ele>
        <time>2024-02-14T10:36:44+01:00</time>
      </trkpt>
      <trkpt lat="43.40725" lon="5.5147">
        <ele>693.7</ele>
        <time>2024-02-14T10:36:54+01:00</time>
      </trkpt>
      <trkpt lat="43.40722" lon="5.51482">
        <ele>692.9</ele>
        <time>2024-02-14T10:37:01+01:00</time>
      </trkpt>
      <trkpt lat="43.4072" lon="5.51496">
        <ele>692.4</ele>
        <time>2024-02-14T10:37:10+01:00</time>
      </trkpt>
      <trkpt lat="43.40718" lon="5.51509">
        <ele>691.6</ele>
        <time>2024-02-14T10:37:20+01:00</time>
      </trkpt>
      <trkpt lat="43.40714" lon="5.51521">
        <ele>691.6</ele>
        <time>2024-02-14T10:37:28+01:00</time>
      </trkpt>
      <trkpt lat="43.4071" lon="5.51533">
        <ele>692</ele>
        <time>2024-02-14T10:37:37+01:00</time>
      </trkpt>
      <trkpt lat="43.40708" lon="5.51545">
        <ele>692</ele>
        <time>2024-02-14T10:37:45+01:00</time>
      </trkpt>
      <trkpt lat="43.407" lon="5.51555">
        <ele>693.8</ele>
        <time>2024-02-14T10:37:52+01:00</time>
      </trkpt>
      <trkpt lat="43.40693" lon="5.51561">
        <ele>695</ele>
        <time>2024-02-14T10:38:01+01:00</time>
      </trkpt>
      <trkpt lat="43.40684" lon="5.51564">
        <ele>693.5</ele>
        <time>2024-02-14T10:38:07+01:00</time>
      </trkpt>
      <trkpt lat="43.40674" lon="5.5156">
        <ele>693.6</ele>
        <time>2024-02-14T10:38:16+01:00</time>
      </trkpt>
      <trkpt lat="43.40666" lon="5.51551">
        <ele>695.3</ele>
        <time>2024-02-14T10:38:25+01:00</time>
      </trkpt>
      <trkpt lat="43.40658" lon="5.51543">
        <ele>695.5</ele>
        <time>2024-02-14T10:38:33+01:00</time>
      </trkpt>
      <trkpt lat="43.4065" lon="5.51536">
        <ele>695.8</ele>
        <time>2024-02-14T10:38:42+01:00</time>
      </trkpt>
      <trkpt lat="43.40642" lon="5.51529">
        <ele>696.4</ele>
        <time>2024-02-14T10:38:51+01:00</time>
      </trkpt>
      <trkpt lat="43.40634" lon="5.5152">
        <ele>697.6</ele>
        <time>2024-02-14T10:38:59+01:00</time>
      </trkpt>
      <trkpt lat="43.40626" lon="5.51511">
        <ele>698.6</ele>
        <time>2024-02-14T10:39:10+01:00</time>
      </trkpt>
      <trkpt lat="43.40618" lon="5.51504">
        <ele>699</ele>
        <time>2024-02-14T10:39:18+01:00</time>
      </trkpt>
      <trkpt lat="43.4061" lon="5.51497">
        <ele>699.8</ele>
        <time>2024-02-14T10:39:26+01:00</time>
      </trkpt>
      <trkpt lat="43.40603" lon="5.51488">
        <ele>699.7</ele>
        <time>2024-02-14T10:39:37+01:00</time>
      </trkpt>
      <trkpt lat="43.40597" lon="5.51477">
        <ele>701.2</ele>
        <time>2024-02-14T10:39:45+01:00</time>
      </trkpt>
      <trkpt lat="43.40591" lon="5.51468">
        <ele>701.5</ele>
        <time>2024-02-14T10:39:53+01:00</time>
      </trkpt>
      <trkpt lat="43.40584" lon="5.51459">
        <ele>701.3</ele>
        <time>2024-02-14T10:40:01+01:00</time>
      </trkpt>
      <trkpt lat="43.40575" lon="5.51452">
        <ele>701</ele>
        <time>2024-02-14T10:40:10+01:00</time>
      </trkpt>
      <trkpt lat="43.40568" lon="5.51443">
        <ele>701.4</ele>
        <time>2024-02-14T10:40:19+01:00</time>
      </trkpt>
      <trkpt lat="43.40559" lon="5.51438">
        <ele>701</ele>
        <time>2024-02-14T10:40:27+01:00</time>
      </trkpt>
      <trkpt lat="43.4055" lon="5.51436">
        <ele>701.1</ele>
        <time>2024-02-14T10:40:35+01:00</time>
      </trkpt>
      <trkpt lat="43.4054" lon="5.51441">
        <ele>700</ele>
        <time>2024-02-14T10:40:44+01:00</time>
      </trkpt>
      <trkpt lat="43.40532" lon="5.51445">
        <ele>699.4</ele>
        <time>2024-02-14T10:40:53+01:00</time>
      </trkpt>
      <trkpt lat="43.40524" lon="5.51452">
        <ele>698.8</ele>
        <time>2024-02-14T10:41:02+01:00</time>
      </trkpt>
      <trkpt lat="43.40517" lon="5.51462">
        <ele>697.8</ele>
        <time>2024-02-14T10:41:09+01:00</time>
      </trkpt>
      <trkpt lat="43.40511" lon="5.51471">
        <ele>696.7</ele>
        <time>2024-02-14T10:41:16+01:00</time>
      </trkpt>
      <trkpt lat="43.40506" lon="5.51483">
        <ele>695.4</ele>
        <time>2024-02-14T10:41:23+01:00</time>
      </trkpt>
      <trkpt lat="43.405" lon="5.51492">
        <ele>695.4</ele>
        <time>2024-02-14T10:41:30+01:00</time>
      </trkpt>
      <trkpt lat="43.40494" lon="5.51505">
        <ele>694.1</ele>
        <time>2024-02-14T10:41:46+01:00</time>
      </trkpt>
      <trkpt lat="43.40488" lon="5.51515">
        <ele>693.5</ele>
        <time>2024-02-14T10:41:55+01:00</time>
      </trkpt>
      <trkpt lat="43.40482" lon="5.51525">
        <ele>692.2</ele>
        <time>2024-02-14T10:42:02+01:00</time>
      </trkpt>
      <trkpt lat="43.40475" lon="5.51536">
        <ele>691.1</ele>
        <time>2024-02-14T10:42:12+01:00</time>
      </trkpt>
      <trkpt lat="43.40468" lon="5.51546">
        <ele>690.7</ele>
        <time>2024-02-14T10:42:21+01:00</time>
      </trkpt>
      <trkpt lat="43.40463" lon="5.51557">
        <ele>689.7</ele>
        <time>2024-02-14T10:42:31+01:00</time>
      </trkpt>
      <trkpt lat="43.40458" lon="5.51568">
        <ele>688.7</ele>
        <time>2024-02-14T10:42:40+01:00</time>
      </trkpt>
      <trkpt lat="43.40453" lon="5.51579">
        <ele>688.5</ele>
        <time>2024-02-14T10:42:48+01:00</time>
      </trkpt>
      <trkpt lat="43.4045" lon="5.51592">
        <ele>686.7</ele>
        <time>2024-02-14T10:42:57+01:00</time>
      </trkpt>
      <trkpt lat="43.40444" lon="5.51602">
        <ele>686.9</ele>
        <time>2024-02-14T10:43:04+01:00</time>
      </trkpt>
      <trkpt lat="43.40438" lon="5.51613">
        <ele>687.3</ele>
        <time>2024-02-14T10:43:14+01:00</time>
      </trkpt>
      <trkpt lat="43.40433" lon="5.51623">
        <ele>688.2</ele>
        <time>2024-02-14T10:43:22+01:00</time>
      </trkpt>
      <trkpt lat="43.40431" lon="5.51637">
        <ele>687.1</ele>
        <time>2024-02-14T10:43:32+01:00</time>
      </trkpt>
      <trkpt lat="43.40429" lon="5.5165">
        <ele>686.3</ele>
        <time>2024-02-14T10:43:40+01:00</time>
      </trkpt>
      <trkpt lat="43.40426" lon="5.51662">
        <ele>686.4</ele>
        <time>2024-02-14T10:43:48+01:00</time>
      </trkpt>
      <trkpt lat="43.40424" lon="5.51676">
        <ele>686</ele>
        <time>2024-02-14T10:43:59+01:00</time>
      </trkpt>
      <trkpt lat="43.40422" lon="5.51688">
        <ele>685.8</ele>
        <time>2024-02-14T10:44:09+01:00</time>
      </trkpt>
      <trkpt lat="43.40416" lon="5.51699">
        <ele>687.9</ele>
        <time>2024-02-14T10:44:17+01:00</time>
      </trkpt>
      <trkpt lat="43.40409" lon="5.51709">
        <ele>686.9</ele>
        <time>2024-02-14T10:44:25+01:00</time>
      </trkpt>
      <trkpt lat="43.404" lon="5.51715">
        <ele>687.4</ele>
        <time>2024-02-14T10:44:34+01:00</time>
      </trkpt>
      <trkpt lat="43.40391" lon="5.51722">
        <ele>688.4</ele>
        <time>2024-02-14T10:44:42+01:00</time>
      </trkpt>
      <trkpt lat="43.40382" lon="5.51729">
        <ele>687.1</ele>
        <time>2024-02-14T10:44:51+01:00</time>
      </trkpt>
      <trkpt lat="43.40374" lon="5.51734">
        <ele>686</ele>
        <time>2024-02-14T10:45:38+01:00</time>
      </trkpt>
      <trkpt lat="43.40382" lon="5.51727">
        <ele>687.4</ele>
        <time>2024-02-14T10:51:45+01:00</time>
      </trkpt>
      <trkpt lat="43.40383" lon="5.51714">
        <ele>690</ele>
        <time>2024-02-14T10:52:45+01:00</time>
      </trkpt>
      <trkpt lat="43.40389" lon="5.51705">
        <ele>693.9</ele>
        <time>2024-02-14T10:53:18+01:00</time>
      </trkpt>
      <trkpt lat="43.40393" lon="5.51694">
        <ele>696</ele>
        <time>2024-02-14T10:53:47+01:00</time>
      </trkpt>
      <trkpt lat="43.404" lon="5.51685">
        <ele>695.3</ele>
        <time>2024-02-14T10:54:09+01:00</time>
      </trkpt>
      <trkpt lat="43.40403" lon="5.51672">
        <ele>696.1</ele>
        <time>2024-02-14T10:54:22+01:00</time>
      </trkpt>
      <trkpt lat="43.40405" lon="5.51659">
        <ele>696.8</ele>
        <time>2024-02-14T10:54:39+01:00</time>
      </trkpt>
      <trkpt lat="43.40404" lon="5.51646">
        <ele>698.3</ele>
        <time>2024-02-14T10:54:52+01:00</time>
      </trkpt>
      <trkpt lat="43.40406" lon="5.51634">
        <ele>698.7</ele>
        <time>2024-02-14T10:55:07+01:00</time>
      </trkpt>
      <trkpt lat="43.40401" lon="5.51622">
        <ele>699.8</ele>
        <time>2024-02-14T10:55:50+01:00</time>
      </trkpt>
      <trkpt lat="43.40409" lon="5.51619">
        <ele>699.1</ele>
        <time>2024-02-14T10:56:11+01:00</time>
      </trkpt>
      <trkpt lat="43.40413" lon="5.51608">
        <ele>701</ele>
        <time>2024-02-14T10:56:28+01:00</time>
      </trkpt>
      <trkpt lat="43.40408" lon="5.51595">
        <ele>705.4</ele>
        <time>2024-02-14T10:56:47+01:00</time>
      </trkpt>
      <trkpt lat="43.40417" lon="5.51591">
        <ele>711.2</ele>
        <time>2024-02-14T10:57:10+01:00</time>
      </trkpt>
      <trkpt lat="43.40418" lon="5.51578">
        <ele>715</ele>
        <time>2024-02-14T10:57:58+01:00</time>
      </trkpt>
      <trkpt lat="43.40423" lon="5.51567">
        <ele>711.7</ele>
        <time>2024-02-14T10:58:22+01:00</time>
      </trkpt>
      <trkpt lat="43.40426" lon="5.51555">
        <ele>711</ele>
        <time>2024-02-14T10:58:59+01:00</time>
      </trkpt>
      <trkpt lat="43.40429" lon="5.51543">
        <ele>711.1</ele>
        <time>2024-02-14T10:59:11+01:00</time>
      </trkpt>
      <trkpt lat="43.40434" lon="5.51533">
        <ele>711.1</ele>
        <time>2024-02-14T10:59:29+01:00</time>
      </trkpt>
      <trkpt lat="43.40429" lon="5.51523">
        <ele>715.4</ele>
        <time>2024-02-14T10:59:59+01:00</time>
      </trkpt>
      <trkpt lat="43.40421" lon="5.51515">
        <ele>719.9</ele>
        <time>2024-02-14T11:00:32+01:00</time>
      </trkpt>
      <trkpt lat="43.40424" lon="5.51503">
        <ele>722.5</ele>
        <time>2024-02-14T11:01:02+01:00</time>
      </trkpt>
      <trkpt lat="43.40428" lon="5.51492">
        <ele>726.1</ele>
        <time>2024-02-14T11:01:54+01:00</time>
      </trkpt>
      <trkpt lat="43.4043" lon="5.5148">
        <ele>731</ele>
        <time>2024-02-14T11:02:56+01:00</time>
      </trkpt>
      <trkpt lat="43.40432" lon="5.51467">
        <ele>734.3</ele>
        <time>2024-02-14T11:03:12+01:00</time>
      </trkpt>
      <trkpt lat="43.40437" lon="5.51456">
        <ele>735.8</ele>
        <time>2024-02-14T11:03:55+01:00</time>
      </trkpt>
      <trkpt lat="43.40436" lon="5.51444">
        <ele>738.3</ele>
        <time>2024-02-14T11:04:34+01:00</time>
      </trkpt>
      <trkpt lat="43.4044" lon="5.51432">
        <ele>740.7</ele>
        <time>2024-02-14T11:06:30+01:00</time>
      </trkpt>
      <trkpt lat="43.40436" lon="5.5142">
        <ele>739.3</ele>
        <time>2024-02-14T11:07:16+01:00</time>
      </trkpt>
      <trkpt lat="43.40435" lon="5.51407">
        <ele>738.6</ele>
        <time>2024-02-14T11:07:42+01:00</time>
      </trkpt>
      <trkpt lat="43.40428" lon="5.51398">
        <ele>733.2</ele>
        <time>2024-02-14T11:08:21+01:00</time>
      </trkpt>
      <trkpt lat="43.40437" lon="5.51392">
        <ele>739.8</ele>
        <time>2024-02-14T11:11:25+01:00</time>
      </trkpt>
      <trkpt lat="43.40445" lon="5.51399">
        <ele>745.3</ele>
        <time>2024-02-14T11:12:23+01:00</time>
      </trkpt>
      <trkpt lat="43.40453" lon="5.51403">
        <ele>743.6</ele>
        <time>2024-02-14T11:12:57+01:00</time>
      </trkpt>
      <trkpt lat="43.40453" lon="5.5139">
        <ele>744.6</ele>
        <time>2024-02-14T11:13:20+01:00</time>
      </trkpt>
      <trkpt lat="43.40462" lon="5.51389">
        <ele>744.4</ele>
        <time>2024-02-14T11:13:36+01:00</time>
      </trkpt>
      <trkpt lat="43.40466" lon="5.51378">
        <ele>746.4</ele>
        <time>2024-02-14T11:13:47+01:00</time>
      </trkpt>
      <trkpt lat="43.40471" lon="5.51367">
        <ele>750.4</ele>
        <time>2024-02-14T11:14:06+01:00</time>
      </trkpt>
      <trkpt lat="43.40474" lon="5.51355">
        <ele>752</ele>
        <time>2024-02-14T11:14:28+01:00</time>
      </trkpt>
      <trkpt lat="43.40482" lon="5.51348">
        <ele>751.8</ele>
        <time>2024-02-14T11:14:42+01:00</time>
      </trkpt>
      <trkpt lat="43.40489" lon="5.51341">
        <ele>753.7</ele>
        <time>2024-02-14T11:15:55+01:00</time>
      </trkpt>
      <trkpt lat="43.40499" lon="5.51344">
        <ele>754.5</ele>
        <time>2024-02-14T11:18:06+01:00</time>
      </trkpt>
      <trkpt lat="43.40503" lon="5.51333">
        <ele>758.9</ele>
        <time>2024-02-14T11:18:25+01:00</time>
      </trkpt>
      <trkpt lat="43.40509" lon="5.51324">
        <ele>759.6</ele>
        <time>2024-02-14T11:18:48+01:00</time>
      </trkpt>
      <trkpt lat="43.40514" lon="5.51314">
        <ele>762.2</ele>
        <time>2024-02-14T11:19:02+01:00</time>
      </trkpt>
      <trkpt lat="43.40524" lon="5.51314">
        <ele>765.1</ele>
        <time>2024-02-14T11:19:44+01:00</time>
      </trkpt>
      <trkpt lat="43.40528" lon="5.51303">
        <ele>770.2</ele>
        <time>2024-02-14T11:20:01+01:00</time>
      </trkpt>
      <trkpt lat="43.40536" lon="5.51296">
        <ele>770.9</ele>
        <time>2024-02-14T11:20:19+01:00</time>
      </trkpt>
      <trkpt lat="43.4054" lon="5.51285">
        <ele>772.7</ele>
        <time>2024-02-14T11:20:42+01:00</time>
      </trkpt>
      <trkpt lat="43.40545" lon="5.51274">
        <ele>773.7</ele>
        <time>2024-02-14T11:22:52+01:00</time>
      </trkpt>
      <trkpt lat="43.40543" lon="5.51262">
        <ele>771.7</ele>
        <time>2024-02-14T11:23:05+01:00</time>
      </trkpt>
      <trkpt lat="43.4054" lon="5.5125">
        <ele>770.1</ele>
        <time>2024-02-14T11:23:17+01:00</time>
      </trkpt>
      <trkpt lat="43.40536" lon="5.51238">
        <ele>768.9</ele>
        <time>2024-02-14T11:23:37+01:00</time>
      </trkpt>
      <trkpt lat="43.40533" lon="5.51225">
        <ele>768</ele>
        <time>2024-02-14T11:23:51+01:00</time>
      </trkpt>
      <trkpt lat="43.40534" lon="5.51213">
        <ele>766.2</ele>
        <time>2024-02-14T11:26:39+01:00</time>
      </trkpt>
      <trkpt lat="43.40534" lon="5.512">
        <ele>764.3</ele>
        <time>2024-02-14T11:26:54+01:00</time>
      </trkpt>
      <trkpt lat="43.40529" lon="5.51188">
        <ele>764.7</ele>
        <time>2024-02-14T11:27:07+01:00</time>
      </trkpt>
      <trkpt lat="43.40524" lon="5.51178">
        <ele>763.1</ele>
        <time>2024-02-14T11:27:19+01:00</time>
      </trkpt>
      <trkpt lat="43.40517" lon="5.51168">
        <ele>761.8</ele>
        <time>2024-02-14T11:27:37+01:00</time>
      </trkpt>
      <trkpt lat="43.40507" lon="5.51163">
        <ele>760.1</ele>
        <time>2024-02-14T11:28:03+01:00</time>
      </trkpt>
      <trkpt lat="43.4051" lon="5.5115">
        <ele>757.8</ele>
        <time>2024-02-14T11:28:15+01:00</time>
      </trkpt>
      <trkpt lat="43.40511" lon="5.51137">
        <ele>755.4</ele>
        <time>2024-02-14T11:28:24+01:00</time>
      </trkpt>
      <trkpt lat="43.40507" lon="5.51125">
        <ele>754.5</ele>
        <time>2024-02-14T11:28:34+01:00</time>
      </trkpt>
      <trkpt lat="43.40506" lon="5.51113">
        <ele>753.4</ele>
        <time>2024-02-14T11:28:47+01:00</time>
      </trkpt>
      <trkpt lat="43.40506" lon="5.51101">
        <ele>752</ele>
        <time>2024-02-14T11:29:31+01:00</time>
      </trkpt>
      <trkpt lat="43.40501" lon="5.5109">
        <ele>752.5</ele>
        <time>2024-02-14T11:29:56+01:00</time>
      </trkpt>
      <trkpt lat="43.40502" lon="5.51078">
        <ele>750.5</ele>
        <time>2024-02-14T11:32:07+01:00</time>
      </trkpt>
      <trkpt lat="43.40503" lon="5.51064">
        <ele>748.1</ele>
        <time>2024-02-14T11:32:28+01:00</time>
      </trkpt>
      <trkpt lat="43.40497" lon="5.51053">
        <ele>747.3</ele>
        <time>2024-02-14T11:32:41+01:00</time>
      </trkpt>
      <trkpt lat="43.405" lon="5.51041">
        <ele>747.3</ele>
        <time>2024-02-14T11:32:51+01:00</time>
      </trkpt>
      <trkpt lat="43.40502" lon="5.51027">
        <ele>746.1</ele>
        <time>2024-02-14T11:33:13+01:00</time>
      </trkpt>
      <trkpt lat="43.405" lon="5.51015">
        <ele>746.5</ele>
        <time>2024-02-14T11:33:25+01:00</time>
      </trkpt>
      <trkpt lat="43.40497" lon="5.51003">
        <ele>745.6</ele>
        <time>2024-02-14T11:33:36+01:00</time>
      </trkpt>
      <trkpt lat="43.40497" lon="5.5099">
        <ele>744.9</ele>
        <time>2024-02-14T11:33:48+01:00</time>
      </trkpt>
      <trkpt lat="43.40494" lon="5.50977">
        <ele>743.9</ele>
        <time>2024-02-14T11:34:00+01:00</time>
      </trkpt>
      <trkpt lat="43.40491" lon="5.50964">
        <ele>743</ele>
        <time>2024-02-14T11:34:11+01:00</time>
      </trkpt>
      <trkpt lat="43.40489" lon="5.50951">
        <ele>741.9</ele>
        <time>2024-02-14T11:34:29+01:00</time>
      </trkpt>
      <trkpt lat="43.4049" lon="5.50937">
        <ele>740.2</ele>
        <time>2024-02-14T11:34:50+01:00</time>
      </trkpt>
      <trkpt lat="43.40486" lon="5.50926">
        <ele>739.2</ele>
        <time>2024-02-14T11:35:09+01:00</time>
      </trkpt>
      <trkpt lat="43.40486" lon="5.50914">
        <ele>737.9</ele>
        <time>2024-02-14T11:35:28+01:00</time>
      </trkpt>
      <trkpt lat="43.40482" lon="5.50902">
        <ele>738.9</ele>
        <time>2024-02-14T11:35:38+01:00</time>
      </trkpt>
      <trkpt lat="43.40484" lon="5.5089">
        <ele>738.3</ele>
        <time>2024-02-14T11:35:54+01:00</time>
      </trkpt>
      <trkpt lat="43.40483" lon="5.50877">
        <ele>738.6</ele>
        <time>2024-02-14T11:36:03+01:00</time>
      </trkpt>
      <trkpt lat="43.40482" lon="5.50864">
        <ele>739</ele>
        <time>2024-02-14T11:36:12+01:00</time>
      </trkpt>
      <trkpt lat="43.40483" lon="5.50851">
        <ele>735.7</ele>
        <time>2024-02-14T11:36:34+01:00</time>
      </trkpt>
      <trkpt lat="43.4048" lon="5.5084">
        <ele>733.9</ele>
        <time>2024-02-14T11:37:03+01:00</time>
      </trkpt>
      <trkpt lat="43.40481" lon="5.50828">
        <ele>730.4</ele>
        <time>2024-02-14T11:37:14+01:00</time>
      </trkpt>
      <trkpt lat="43.40485" lon="5.50815">
        <ele>727.2</ele>
        <time>2024-02-14T11:37:29+01:00</time>
      </trkpt>
      <trkpt lat="43.40487" lon="5.50803">
        <ele>725</ele>
        <time>2024-02-14T11:37:46+01:00</time>
      </trkpt>
      <trkpt lat="43.40486" lon="5.50791">
        <ele>723.6</ele>
        <time>2024-02-14T11:38:04+01:00</time>
      </trkpt>
      <trkpt lat="43.40482" lon="5.50779">
        <ele>722.7</ele>
        <time>2024-02-14T11:38:22+01:00</time>
      </trkpt>
      <trkpt lat="43.40483" lon="5.50766">
        <ele>721.2</ele>
        <time>2024-02-14T11:38:36+01:00</time>
      </trkpt>
      <trkpt lat="43.40484" lon="5.50753">
        <ele>719.6</ele>
        <time>2024-02-14T11:38:48+01:00</time>
      </trkpt>
      <trkpt lat="43.40485" lon="5.50739">
        <ele>717.6</ele>
        <time>2024-02-14T11:39:05+01:00</time>
      </trkpt>
      <trkpt lat="43.40489" lon="5.50728">
        <ele>715.7</ele>
        <time>2024-02-14T11:39:15+01:00</time>
      </trkpt>
      <trkpt lat="43.40493" lon="5.50716">
        <ele>714.8</ele>
        <time>2024-02-14T11:39:26+01:00</time>
      </trkpt>
      <trkpt lat="43.40495" lon="5.50703">
        <ele>714.6</ele>
        <time>2024-02-14T11:39:37+01:00</time>
      </trkpt>
      <trkpt lat="43.40495" lon="5.5069">
        <ele>714</ele>
        <time>2024-02-14T11:39:50+01:00</time>
      </trkpt>
      <trkpt lat="43.40491" lon="5.50678">
        <ele>712.7</ele>
        <time>2024-02-14T11:40:00+01:00</time>
      </trkpt>
      <trkpt lat="43.40492" lon="5.50664">
        <ele>711.7</ele>
        <time>2024-02-14T11:40:15+01:00</time>
      </trkpt>
      <trkpt lat="43.40488" lon="5.50651">
        <ele>711.7</ele>
        <time>2024-02-14T11:40:24+01:00</time>
      </trkpt>
      <trkpt lat="43.40487" lon="5.50639">
        <ele>711.9</ele>
        <time>2024-02-14T11:40:35+01:00</time>
      </trkpt>
      <trkpt lat="43.40483" lon="5.50626">
        <ele>713.4</ele>
        <time>2024-02-14T11:40:47+01:00</time>
      </trkpt>
      <trkpt lat="43.40486" lon="5.50613">
        <ele>713.4</ele>
        <time>2024-02-14T11:40:59+01:00</time>
      </trkpt>
      <trkpt lat="43.4048" lon="5.50604">
        <ele>716.5</ele>
        <time>2024-02-14T11:41:09+01:00</time>
      </trkpt>
      <trkpt lat="43.40477" lon="5.50592">
        <ele>719.2</ele>
        <time>2024-02-14T11:41:20+01:00</time>
      </trkpt>
      <trkpt lat="43.40476" lon="5.50579">
        <ele>721.6</ele>
        <time>2024-02-14T11:41:36+01:00</time>
      </trkpt>
      <trkpt lat="43.40472" lon="5.50567">
        <ele>725.5</ele>
        <time>2024-02-14T11:41:50+01:00</time>
      </trkpt>
      <trkpt lat="43.4047" lon="5.50555">
        <ele>726.7</ele>
        <time>2024-02-14T11:42:07+01:00</time>
      </trkpt>
      <trkpt lat="43.40467" lon="5.50542">
        <ele>727.8</ele>
        <time>2024-02-14T11:42:25+01:00</time>
      </trkpt>
      <trkpt lat="43.40463" lon="5.50531">
        <ele>728.2</ele>
        <time>2024-02-14T11:42:46+01:00</time>
      </trkpt>
      <trkpt lat="43.40461" lon="5.50518">
        <ele>727.9</ele>
        <time>2024-02-14T11:42:55+01:00</time>
      </trkpt>
      <trkpt lat="43.40462" lon="5.50505">
        <ele>727.8</ele>
        <time>2024-02-14T11:43:05+01:00</time>
      </trkpt>
      <trkpt lat="43.40465" lon="5.50492">
        <ele>727.8</ele>
        <time>2024-02-14T11:43:16+01:00</time>
      </trkpt>
      <trkpt lat="43.40462" lon="5.5048">
        <ele>726.1</ele>
        <time>2024-02-14T11:43:30+01:00</time>
      </trkpt>
      <trkpt lat="43.40468" lon="5.5047">
        <ele>727.1</ele>
        <time>2024-02-14T11:43:41+01:00</time>
      </trkpt>
      <trkpt lat="43.40468" lon="5.50457">
        <ele>727.4</ele>
        <time>2024-02-14T11:43:52+01:00</time>
      </trkpt>
      <trkpt lat="43.40469" lon="5.50444">
        <ele>728.1</ele>
        <time>2024-02-14T11:44:06+01:00</time>
      </trkpt>
      <trkpt lat="43.40467" lon="5.50431">
        <ele>727.2</ele>
        <time>2024-02-14T11:44:19+01:00</time>
      </trkpt>
      <trkpt lat="43.40463" lon="5.50419">
        <ele>726.7</ele>
        <time>2024-02-14T11:44:34+01:00</time>
      </trkpt>
      <trkpt lat="43.40461" lon="5.50407">
        <ele>724.9</ele>
        <time>2024-02-14T11:44:48+01:00</time>
      </trkpt>
      <trkpt lat="43.40461" lon="5.50394">
        <ele>722.7</ele>
        <time>2024-02-14T11:45:05+01:00</time>
      </trkpt>
      <trkpt lat="43.40455" lon="5.50382">
        <ele>722.8</ele>
        <time>2024-02-14T11:46:25+01:00</time>
      </trkpt>
      <trkpt lat="43.40452" lon="5.5037">
        <ele>722.5</ele>
        <time>2024-02-14T11:46:43+01:00</time>
      </trkpt>
      <trkpt lat="43.40454" lon="5.50357">
        <ele>721.2</ele>
        <time>2024-02-14T11:46:55+01:00</time>
      </trkpt>
      <trkpt lat="43.40456" lon="5.50345">
        <ele>720.6</ele>
        <time>2024-02-14T11:47:08+01:00</time>
      </trkpt>
      <trkpt lat="43.40461" lon="5.50333">
        <ele>719.6</ele>
        <time>2024-02-14T11:47:28+01:00</time>
      </trkpt>
      <trkpt lat="43.40459" lon="5.50321">
        <ele>720.3</ele>
        <time>2024-02-14T11:47:36+01:00</time>
      </trkpt>
      <trkpt lat="43.40457" lon="5.50308">
        <ele>721.2</ele>
        <time>2024-02-14T11:47:50+01:00</time>
      </trkpt>
      <trkpt lat="43.40454" lon="5.50296">
        <ele>722.3</ele>
        <time>2024-02-14T11:48:02+01:00</time>
      </trkpt>
      <trkpt lat="43.40458" lon="5.50284">
        <ele>722.2</ele>
        <time>2024-02-14T11:48:15+01:00</time>
      </trkpt>
      <trkpt lat="43.40462" lon="5.50272">
        <ele>721.8</ele>
        <time>2024-02-14T11:48:29+01:00</time>
      </trkpt>
      <trkpt lat="43.40465" lon="5.50259">
        <ele>721.8</ele>
        <time>2024-02-14T11:48:39+01:00</time>
      </trkpt>
      <trkpt lat="43.40463" lon="5.50246">
        <ele>722.7</ele>
        <time>2024-02-14T11:48:49+01:00</time>
      </trkpt>
      <trkpt lat="43.40467" lon="5.50233">
        <ele>724.7</ele>
        <time>2024-02-14T11:49:03+01:00</time>
      </trkpt>
      <trkpt lat="43.40469" lon="5.5022">
        <ele>726.4</ele>
        <time>2024-02-14T11:49:13+01:00</time>
      </trkpt>
      <trkpt lat="43.40472" lon="5.50208">
        <ele>726.1</ele>
        <time>2024-02-14T11:49:23+01:00</time>
      </trkpt>
      <trkpt lat="43.40471" lon="5.50195">
        <ele>726.1</ele>
        <time>2024-02-14T11:49:41+01:00</time>
      </trkpt>
      <trkpt lat="43.40472" lon="5.50183">
        <ele>724.3</ele>
        <time>2024-02-14T11:49:55+01:00</time>
      </trkpt>
      <trkpt lat="43.40473" lon="5.5017">
        <ele>722.5</ele>
        <time>2024-02-14T11:50:07+01:00</time>
      </trkpt>
      <trkpt lat="43.40478" lon="5.50159">
        <ele>720.7</ele>
        <time>2024-02-14T11:50:24+01:00</time>
      </trkpt>
      <trkpt lat="43.40484" lon="5.50147">
        <ele>719.5</ele>
        <time>2024-02-14T11:50:41+01:00</time>
      </trkpt>
      <trkpt lat="43.40489" lon="5.50136">
        <ele>719.1</ele>
        <time>2024-02-14T11:50:55+01:00</time>
      </trkpt>
      <trkpt lat="43.40493" lon="5.50124">
        <ele>718.4</ele>
        <time>2024-02-14T11:51:07+01:00</time>
      </trkpt>
      <trkpt lat="43.40498" lon="5.50113">
        <ele>718.5</ele>
        <time>2024-02-14T11:51:18+01:00</time>
      </trkpt>
      <trkpt lat="43.40499" lon="5.50099">
        <ele>718.4</ele>
        <time>2024-02-14T11:51:31+01:00</time>
      </trkpt>
      <trkpt lat="43.40498" lon="5.50087">
        <ele>717.6</ele>
        <time>2024-02-14T11:51:40+01:00</time>
      </trkpt>
      <trkpt lat="43.40501" lon="5.50075">
        <ele>718.1</ele>
        <time>2024-02-14T11:57:58+01:00</time>
      </trkpt>
      <trkpt lat="43.40502" lon="5.50063">
        <ele>718.2</ele>
        <time>2024-02-14T11:58:09+01:00</time>
      </trkpt>
      <trkpt lat="43.40504" lon="5.50049">
        <ele>718.4</ele>
        <time>2024-02-14T11:58:40+01:00</time>
      </trkpt>
      <trkpt lat="43.40504" lon="5.50037">
        <ele>718.1</ele>
        <time>2024-02-14T11:58:50+01:00</time>
      </trkpt>
      <trkpt lat="43.40507" lon="5.50024">
        <ele>718.2</ele>
        <time>2024-02-14T11:59:00+01:00</time>
      </trkpt>
      <trkpt lat="43.40507" lon="5.50011">
        <ele>719.5</ele>
        <time>2024-02-14T11:59:13+01:00</time>
      </trkpt>
      <trkpt lat="43.40506" lon="5.49999">
        <ele>721</ele>
        <time>2024-02-14T11:59:25+01:00</time>
      </trkpt>
      <trkpt lat="43.40506" lon="5.49986">
        <ele>721.7</ele>
        <time>2024-02-14T11:59:36+01:00</time>
      </trkpt>
      <trkpt lat="43.40508" lon="5.49974">
        <ele>722</ele>
        <time>2024-02-14T11:59:46+01:00</time>
      </trkpt>
      <trkpt lat="43.40511" lon="5.49961">
        <ele>722.2</ele>
        <time>2024-02-14T12:00:01+01:00</time>
      </trkpt>
      <trkpt lat="43.40508" lon="5.49948">
        <ele>724.3</ele>
        <time>2024-02-14T12:00:09+01:00</time>
      </trkpt>
      <trkpt lat="43.40507" lon="5.49935">
        <ele>724.8</ele>
        <time>2024-02-14T12:00:18+01:00</time>
      </trkpt>
      <trkpt lat="43.40512" lon="5.49923">
        <ele>724</ele>
        <time>2024-02-14T12:00:27+01:00</time>
      </trkpt>
      <trkpt lat="43.40513" lon="5.4991">
        <ele>724.6</ele>
        <time>2024-02-14T12:00:36+01:00</time>
      </trkpt>
      <trkpt lat="43.40514" lon="5.49898">
        <ele>725.7</ele>
        <time>2024-02-14T12:00:45+01:00</time>
      </trkpt>
      <trkpt lat="43.40517" lon="5.49885">
        <ele>727</ele>
        <time>2024-02-14T12:00:56+01:00</time>
      </trkpt>
      <trkpt lat="43.40523" lon="5.49875">
        <ele>728.4</ele>
        <time>2024-02-14T12:01:09+01:00</time>
      </trkpt>
      <trkpt lat="43.4053" lon="5.49866">
        <ele>729</ele>
        <time>2024-02-14T12:01:22+01:00</time>
      </trkpt>
      <trkpt lat="43.40537" lon="5.49857">
        <ele>727.2</ele>
        <time>2024-02-14T12:02:45+01:00</time>
      </trkpt>
      <trkpt lat="43.40541" lon="5.49846">
        <ele>726.7</ele>
        <time>2024-02-14T12:03:46+01:00</time>
      </trkpt>
      <trkpt lat="43.40546" lon="5.49835">
        <ele>727.2</ele>
        <time>2024-02-14T12:03:57+01:00</time>
      </trkpt>
      <trkpt lat="43.40552" lon="5.49826">
        <ele>726.5</ele>
        <time>2024-02-14T12:04:11+01:00</time>
      </trkpt>
      <trkpt lat="43.40559" lon="5.49818">
        <ele>724.5</ele>
        <time>2024-02-14T12:04:31+01:00</time>
      </trkpt>
      <trkpt lat="43.40565" lon="5.49808">
        <ele>722.9</ele>
        <time>2024-02-14T12:04:49+01:00</time>
      </trkpt>
      <trkpt lat="43.40573" lon="5.49801">
        <ele>721.1</ele>
        <time>2024-02-14T12:05:03+01:00</time>
      </trkpt>
      <trkpt lat="43.40581" lon="5.49795">
        <ele>720.3</ele>
        <time>2024-02-14T12:05:14+01:00</time>
      </trkpt>
      <trkpt lat="43.40587" lon="5.49786">
        <ele>722</ele>
        <time>2024-02-14T12:05:25+01:00</time>
      </trkpt>
      <trkpt lat="43.40593" lon="5.49776">
        <ele>724.8</ele>
        <time>2024-02-14T12:05:40+01:00</time>
      </trkpt>
      <trkpt lat="43.40601" lon="5.49768">
        <ele>726.7</ele>
        <time>2024-02-14T12:05:53+01:00</time>
      </trkpt>
      <trkpt lat="43.40601" lon="5.49755">
        <ele>725.9</ele>
        <time>2024-02-14T12:06:10+01:00</time>
      </trkpt>
      <trkpt lat="43.40611" lon="5.49754">
        <ele>730</ele>
        <time>2024-02-14T12:06:39+01:00</time>
      </trkpt>
      <trkpt lat="43.40621" lon="5.49762">
        <ele>725.5</ele>
        <time>2024-02-14T12:08:39+01:00</time>
      </trkpt>
      <trkpt lat="43.40613" lon="5.49754">
        <ele>729.2</ele>
        <time>2024-02-14T12:09:39+01:00</time>
      </trkpt>
      <trkpt lat="43.40606" lon="5.49747">
        <ele>726.9</ele>
        <time>2024-02-14T12:10:03+01:00</time>
      </trkpt>
      <trkpt lat="43.40612" lon="5.49737">
        <ele>727.6</ele>
        <time>2024-02-14T12:10:33+01:00</time>
      </trkpt>
      <trkpt lat="43.40617" lon="5.49727">
        <ele>725.6</ele>
        <time>2024-02-14T12:10:48+01:00</time>
      </trkpt>
      <trkpt lat="43.4062" lon="5.49715">
        <ele>724.9</ele>
        <time>2024-02-14T12:11:06+01:00</time>
      </trkpt>
      <trkpt lat="43.40626" lon="5.49705">
        <ele>725.8</ele>
        <time>2024-02-14T12:11:23+01:00</time>
      </trkpt>
      <trkpt lat="43.40632" lon="5.49694">
        <ele>727.7</ele>
        <time>2024-02-14T12:11:34+01:00</time>
      </trkpt>
      <trkpt lat="43.40635" lon="5.49683">
        <ele>727.3</ele>
        <time>2024-02-14T12:11:42+01:00</time>
      </trkpt>
      <trkpt lat="43.40637" lon="5.4967">
        <ele>726.7</ele>
        <time>2024-02-14T12:11:51+01:00</time>
      </trkpt>
      <trkpt lat="43.40644" lon="5.49659">
        <ele>722.7</ele>
        <time>2024-02-14T12:12:05+01:00</time>
      </trkpt>
      <trkpt lat="43.40648" lon="5.49647">
        <ele>718.8</ele>
        <time>2024-02-14T12:12:25+01:00</time>
      </trkpt>
      <trkpt lat="43.40648" lon="5.49634">
        <ele>718.6</ele>
        <time>2024-02-14T12:12:41+01:00</time>
      </trkpt>
      <trkpt lat="43.4065" lon="5.49622">
        <ele>718.5</ele>
        <time>2024-02-14T12:12:52+01:00</time>
      </trkpt>
      <trkpt lat="43.40655" lon="5.49611">
        <ele>719.6</ele>
        <time>2024-02-14T12:13:03+01:00</time>
      </trkpt>
      <trkpt lat="43.40656" lon="5.49598">
        <ele>720.7</ele>
        <time>2024-02-14T12:13:25+01:00</time>
      </trkpt>
      <trkpt lat="43.40662" lon="5.49587">
        <ele>723.8</ele>
        <time>2024-02-14T12:13:42+01:00</time>
      </trkpt>
      <trkpt lat="43.40667" lon="5.49577">
        <ele>725.3</ele>
        <time>2024-02-14T12:13:58+01:00</time>
      </trkpt>
      <trkpt lat="43.40672" lon="5.49565">
        <ele>721.1</ele>
        <time>2024-02-14T12:14:08+01:00</time>
      </trkpt>
      <trkpt lat="43.40677" lon="5.49554">
        <ele>719.9</ele>
        <time>2024-02-14T12:14:30+01:00</time>
      </trkpt>
      <trkpt lat="43.40684" lon="5.49547">
        <ele>720.4</ele>
        <time>2024-02-14T12:14:56+01:00</time>
      </trkpt>
      <trkpt lat="43.40689" lon="5.49535">
        <ele>724.2</ele>
        <time>2024-02-14T12:15:07+01:00</time>
      </trkpt>
      <trkpt lat="43.40696" lon="5.49526">
        <ele>728</ele>
        <time>2024-02-14T12:15:26+01:00</time>
      </trkpt>
      <trkpt lat="43.40703" lon="5.49518">
        <ele>724.6</ele>
        <time>2024-02-14T12:15:35+01:00</time>
      </trkpt>
      <trkpt lat="43.4071" lon="5.4951">
        <ele>724.9</ele>
        <time>2024-02-14T12:15:46+01:00</time>
      </trkpt>
      <trkpt lat="43.40714" lon="5.49498">
        <ele>728.5</ele>
        <time>2024-02-14T12:15:56+01:00</time>
      </trkpt>
      <trkpt lat="43.40717" lon="5.49485">
        <ele>728</ele>
        <time>2024-02-14T12:16:06+01:00</time>
      </trkpt>
      <trkpt lat="43.40726" lon="5.49479">
        <ele>727</ele>
        <time>2024-02-14T12:16:21+01:00</time>
      </trkpt>
      <trkpt lat="43.40729" lon="5.49467">
        <ele>724.3</ele>
        <time>2024-02-14T12:16:34+01:00</time>
      </trkpt>
      <trkpt lat="43.40734" lon="5.49455">
        <ele>724.3</ele>
        <time>2024-02-14T12:16:52+01:00</time>
      </trkpt>
      <trkpt lat="43.40741" lon="5.49448">
        <ele>726.9</ele>
        <time>2024-02-14T12:17:09+01:00</time>
      </trkpt>
      <trkpt lat="43.40746" lon="5.49438">
        <ele>729.7</ele>
        <time>2024-02-14T12:17:24+01:00</time>
      </trkpt>
      <trkpt lat="43.40754" lon="5.4943">
        <ele>730.7</ele>
        <time>2024-02-14T12:17:41+01:00</time>
      </trkpt>
      <trkpt lat="43.40759" lon="5.4942">
        <ele>732.9</ele>
        <time>2024-02-14T12:17:51+01:00</time>
      </trkpt>
      <trkpt lat="43.40762" lon="5.49408">
        <ele>733</ele>
        <time>2024-02-14T12:18:02+01:00</time>
      </trkpt>
      <trkpt lat="43.40765" lon="5.49396">
        <ele>732.4</ele>
        <time>2024-02-14T12:18:11+01:00</time>
      </trkpt>
      <trkpt lat="43.40769" lon="5.49385">
        <ele>732.5</ele>
        <time>2024-02-14T12:18:22+01:00</time>
      </trkpt>
      <trkpt lat="43.40771" lon="5.49372">
        <ele>731.8</ele>
        <time>2024-02-14T12:18:31+01:00</time>
      </trkpt>
      <trkpt lat="43.40773" lon="5.49359">
        <ele>731</ele>
        <time>2024-02-14T12:18:41+01:00</time>
      </trkpt>
      <trkpt lat="43.40774" lon="5.49346">
        <ele>730.3</ele>
        <time>2024-02-14T12:18:49+01:00</time>
      </trkpt>
      <trkpt lat="43.40775" lon="5.49332">
        <ele>729.9</ele>
        <time>2024-02-14T12:18:58+01:00</time>
      </trkpt>
      <trkpt lat="43.40778" lon="5.4932">
        <ele>729.5</ele>
        <time>2024-02-14T12:19:11+01:00</time>
      </trkpt>
      <trkpt lat="43.40779" lon="5.49307">
        <ele>728.1</ele>
        <time>2024-02-14T12:19:21+01:00</time>
      </trkpt>
      <trkpt lat="43.40777" lon="5.49294">
        <ele>726.9</ele>
        <time>2024-02-14T12:19:35+01:00</time>
      </trkpt>
      <trkpt lat="43.40774" lon="5.49282">
        <ele>724.4</ele>
        <time>2024-02-14T12:20:02+01:00</time>
      </trkpt>
      <trkpt lat="43.40772" lon="5.49268">
        <ele>722</ele>
        <time>2024-02-14T12:20:20+01:00</time>
      </trkpt>
      <trkpt lat="43.40773" lon="5.49256">
        <ele>721</ele>
        <time>2024-02-14T12:20:30+01:00</time>
      </trkpt>
      <trkpt lat="43.40775" lon="5.49243">
        <ele>720.1</ele>
        <time>2024-02-14T12:20:42+01:00</time>
      </trkpt>
      <trkpt lat="43.40776" lon="5.4923">
        <ele>719</ele>
        <time>2024-02-14T12:20:53+01:00</time>
      </trkpt>
      <trkpt lat="43.40775" lon="5.49216">
        <ele>717.4</ele>
        <time>2024-02-14T12:21:04+01:00</time>
      </trkpt>
      <trkpt lat="43.40775" lon="5.49203">
        <ele>716.1</ele>
        <time>2024-02-14T12:21:17+01:00</time>
      </trkpt>
      <trkpt lat="43.40775" lon="5.49191">
        <ele>713.4</ele>
        <time>2024-02-14T12:22:59+01:00</time>
      </trkpt>
      <trkpt lat="43.40775" lon="5.49178">
        <ele>707.7</ele>
        <time>2024-02-14T12:23:20+01:00</time>
      </trkpt>
      <trkpt lat="43.40773" lon="5.49166">
        <ele>702.3</ele>
        <time>2024-02-14T12:23:40+01:00</time>
      </trkpt>
      <trkpt lat="43.40771" lon="5.49153">
        <ele>700.2</ele>
        <time>2024-02-14T12:23:57+01:00</time>
      </trkpt>
      <trkpt lat="43.40772" lon="5.49141">
        <ele>697.8</ele>
        <time>2024-02-14T12:24:10+01:00</time>
      </trkpt>
      <trkpt lat="43.40775" lon="5.49128">
        <ele>698</ele>
        <time>2024-02-14T12:24:24+01:00</time>
      </trkpt>
      <trkpt lat="43.40776" lon="5.49116">
        <ele>699.2</ele>
        <time>2024-02-14T12:24:38+01:00</time>
      </trkpt>
      <trkpt lat="43.40781" lon="5.49105">
        <ele>695.3</ele>
        <time>2024-02-14T12:24:51+01:00</time>
      </trkpt>
      <trkpt lat="43.40784" lon="5.49093">
        <ele>692.2</ele>
        <time>2024-02-14T12:25:05+01:00</time>
      </trkpt>
      <trkpt lat="43.40789" lon="5.49082">
        <ele>686.5</ele>
        <time>2024-02-14T12:25:19+01:00</time>
      </trkpt>
      <trkpt lat="43.40795" lon="5.49073">
        <ele>679.2</ele>
        <time>2024-02-14T12:25:30+01:00</time>
      </trkpt>
      <trkpt lat="43.40793" lon="5.4906">
        <ele>682.9</ele>
        <time>2024-02-14T12:25:40+01:00</time>
      </trkpt>
      <trkpt lat="43.40799" lon="5.49051">
        <ele>680.8</ele>
        <time>2024-02-14T12:25:52+01:00</time>
      </trkpt>
      <trkpt lat="43.408" lon="5.49038">
        <ele>686.3</ele>
        <time>2024-02-14T12:26:15+01:00</time>
      </trkpt>
      <trkpt lat="43.40802" lon="5.49024">
        <ele>692</ele>
        <time>2024-02-14T12:26:27+01:00</time>
      </trkpt>
      <trkpt lat="43.40803" lon="5.49011">
        <ele>693.5</ele>
        <time>2024-02-14T12:26:46+01:00</time>
      </trkpt>
      <trkpt lat="43.40805" lon="5.48999">
        <ele>695.6</ele>
        <time>2024-02-14T12:27:01+01:00</time>
      </trkpt>
      <trkpt lat="43.40812" lon="5.48989">
        <ele>684.8</ele>
        <time>2024-02-14T12:27:12+01:00</time>
      </trkpt>
      <trkpt lat="43.4082" lon="5.48983">
        <ele>673.6</ele>
        <time>2024-02-14T12:27:46+01:00</time>
      </trkpt>
      <trkpt lat="43.40816" lon="5.48971">
        <ele>677</ele>
        <time>2024-02-14T12:28:48+01:00</time>
      </trkpt>
      <trkpt lat="43.40817" lon="5.48958">
        <ele>675.8</ele>
        <time>2024-02-14T12:29:19+01:00</time>
      </trkpt>
      <trkpt lat="43.40816" lon="5.48946">
        <ele>675.3</ele>
        <time>2024-02-14T12:29:56+01:00</time>
      </trkpt>
      <trkpt lat="43.40815" lon="5.48933">
        <ele>674.7</ele>
        <time>2024-02-14T12:30:24+01:00</time>
      </trkpt>
      <trkpt lat="43.40811" lon="5.4892">
        <ele>674.8</ele>
        <time>2024-02-14T12:30:45+01:00</time>
      </trkpt>
      <trkpt lat="43.40818" lon="5.48911">
        <ele>669.1</ele>
        <time>2024-02-14T12:31:05+01:00</time>
      </trkpt>
      <trkpt lat="43.40818" lon="5.48898">
        <ele>666.4</ele>
        <time>2024-02-14T12:31:30+01:00</time>
      </trkpt>
      <trkpt lat="43.40818" lon="5.48885">
        <ele>663.9</ele>
        <time>2024-02-14T12:32:04+01:00</time>
      </trkpt>
      <trkpt lat="43.40814" lon="5.48874">
        <ele>663.8</ele>
        <time>2024-02-14T12:32:30+01:00</time>
      </trkpt>
      <trkpt lat="43.40817" lon="5.48861">
        <ele>659.8</ele>
        <time>2024-02-14T12:32:46+01:00</time>
      </trkpt>
      <trkpt lat="43.40817" lon="5.48848">
        <ele>657</ele>
        <time>2024-02-14T12:33:18+01:00</time>
      </trkpt>
      <trkpt lat="43.40819" lon="5.48836">
        <ele>653.5</ele>
        <time>2024-02-14T12:33:35+01:00</time>
      </trkpt>
      <trkpt lat="43.40818" lon="5.48823">
        <ele>651.9</ele>
        <time>2024-02-14T12:33:56+01:00</time>
      </trkpt>
      <trkpt lat="43.40815" lon="5.4881">
        <ele>651.1</ele>
        <time>2024-02-14T12:34:48+01:00</time>
      </trkpt>
      <trkpt lat="43.40811" lon="5.48798">
        <ele>649.9</ele>
        <time>2024-02-14T12:36:27+01:00</time>
      </trkpt>
      <trkpt lat="43.40813" lon="5.48786">
        <ele>645.9</ele>
        <time>2024-02-14T12:41:19+01:00</time>
      </trkpt>
      <trkpt lat="43.40815" lon="5.48773">
        <ele>642.2</ele>
        <time>2024-02-14T12:42:59+01:00</time>
      </trkpt>
      <trkpt lat="43.40815" lon="5.48761">
        <ele>639</ele>
        <time>2024-02-14T12:43:55+01:00</time>
      </trkpt>
      <trkpt lat="43.40816" lon="5.48748">
        <ele>635.6</ele>
        <time>2024-02-14T12:44:45+01:00</time>
      </trkpt>
      <trkpt lat="43.40823" lon="5.48738">
        <ele>633.1</ele>
        <time>2024-02-14T12:45:09+01:00</time>
      </trkpt>
      <trkpt lat="43.40827" lon="5.48728">
        <ele>631.1</ele>
        <time>2024-02-14T12:45:25+01:00</time>
      </trkpt>
      <trkpt lat="43.40827" lon="5.48715">
        <ele>628.7</ele>
        <time>2024-02-14T12:45:53+01:00</time>
      </trkpt>
      <trkpt lat="43.40831" lon="5.48703">
        <ele>627.2</ele>
        <time>2024-02-14T12:46:11+01:00</time>
      </trkpt>
      <trkpt lat="43.40829" lon="5.48691">
        <ele>624.6</ele>
        <time>2024-02-14T12:46:34+01:00</time>
      </trkpt>
      <trkpt lat="43.40833" lon="5.48678">
        <ele>623</ele>
        <time>2024-02-14T12:46:51+01:00</time>
      </trkpt>
      <trkpt lat="43.40832" lon="5.48666">
        <ele>620.6</ele>
        <time>2024-02-14T12:47:07+01:00</time>
      </trkpt>
      <trkpt lat="43.40831" lon="5.48653">
        <ele>618.7</ele>
        <time>2024-02-14T12:47:24+01:00</time>
      </trkpt>
      <trkpt lat="43.4083" lon="5.48641">
        <ele>616.6</ele>
        <time>2024-02-14T12:47:37+01:00</time>
      </trkpt>
      <trkpt lat="43.40828" lon="5.48628">
        <ele>614.6</ele>
        <time>2024-02-14T12:47:50+01:00</time>
      </trkpt>
      <trkpt lat="43.40826" lon="5.48615">
        <ele>612.6</ele>
        <time>2024-02-14T12:48:01+01:00</time>
      </trkpt>
      <trkpt lat="43.40824" lon="5.48602">
        <ele>611.4</ele>
        <time>2024-02-14T12:48:10+01:00</time>
      </trkpt>
      <trkpt lat="43.40825" lon="5.48589">
        <ele>611.2</ele>
        <time>2024-02-14T12:48:18+01:00</time>
      </trkpt>
      <trkpt lat="43.40825" lon="5.48577">
        <ele>610.3</ele>
        <time>2024-02-14T12:48:27+01:00</time>
      </trkpt>
      <trkpt lat="43.40822" lon="5.48563">
        <ele>608.4</ele>
        <time>2024-02-14T12:48:41+01:00</time>
      </trkpt>
      <trkpt lat="43.4082" lon="5.48551">
        <ele>606.4</ele>
        <time>2024-02-14T12:48:55+01:00</time>
      </trkpt>
      <trkpt lat="43.40817" lon="5.48539">
        <ele>603.8</ele>
        <time>2024-02-14T12:49:11+01:00</time>
      </trkpt>
      <trkpt lat="43.40819" lon="5.48527">
        <ele>602.2</ele>
        <time>2024-02-14T12:49:24+01:00</time>
      </trkpt>
      <trkpt lat="43.4082" lon="5.48514">
        <ele>599.3</ele>
        <time>2024-02-14T12:49:39+01:00</time>
      </trkpt>
      <trkpt lat="43.40822" lon="5.48501">
        <ele>596.5</ele>
        <time>2024-02-14T12:49:53+01:00</time>
      </trkpt>
      <trkpt lat="43.40823" lon="5.48488">
        <ele>594.6</ele>
        <time>2024-02-14T12:50:04+01:00</time>
      </trkpt>
      <trkpt lat="43.40822" lon="5.48474">
        <ele>592.9</ele>
        <time>2024-02-14T12:50:12+01:00</time>
      </trkpt>
      <trkpt lat="43.40819" lon="5.48461">
        <ele>591.7</ele>
        <time>2024-02-14T12:50:21+01:00</time>
      </trkpt>
      <trkpt lat="43.40822" lon="5.48449">
        <ele>590.9</ele>
        <time>2024-02-14T12:50:32+01:00</time>
      </trkpt>
      <trkpt lat="43.40821" lon="5.48437">
        <ele>589.5</ele>
        <time>2024-02-14T12:50:44+01:00</time>
      </trkpt>
      <trkpt lat="43.40822" lon="5.48424">
        <ele>587.9</ele>
        <time>2024-02-14T12:51:04+01:00</time>
      </trkpt>
      <trkpt lat="43.40821" lon="5.48411">
        <ele>586.4</ele>
        <time>2024-02-14T12:51:13+01:00</time>
      </trkpt>
      <trkpt lat="43.40823" lon="5.48398">
        <ele>585.8</ele>
        <time>2024-02-14T12:51:23+01:00</time>
      </trkpt>
      <trkpt lat="43.40821" lon="5.48384">
        <ele>584.9</ele>
        <time>2024-02-14T12:51:33+01:00</time>
      </trkpt>
      <trkpt lat="43.40824" lon="5.48371">
        <ele>585.8</ele>
        <time>2024-02-14T12:51:43+01:00</time>
      </trkpt>
      <trkpt lat="43.40823" lon="5.48358">
        <ele>586</ele>
        <time>2024-02-14T12:51:53+01:00</time>
      </trkpt>
      <trkpt lat="43.40819" lon="5.48345">
        <ele>586.3</ele>
        <time>2024-02-14T12:52:08+01:00</time>
      </trkpt>
      <trkpt lat="43.40814" lon="5.48333">
        <ele>586.2</ele>
        <time>2024-02-14T12:52:17+01:00</time>
      </trkpt>
      <trkpt lat="43.40812" lon="5.48321">
        <ele>586.4</ele>
        <time>2024-02-14T12:52:36+01:00</time>
      </trkpt>
      <trkpt lat="43.40809" lon="5.48308">
        <ele>586.7</ele>
        <time>2024-02-14T12:52:46+01:00</time>
      </trkpt>
      <trkpt lat="43.40806" lon="5.48296">
        <ele>587</ele>
        <time>2024-02-14T12:52:56+01:00</time>
      </trkpt>
      <trkpt lat="43.40804" lon="5.48283">
        <ele>587.8</ele>
        <time>2024-02-14T12:53:07+01:00</time>
      </trkpt>
      <trkpt lat="43.40799" lon="5.48273">
        <ele>586.5</ele>
        <time>2024-02-14T12:54:36+01:00</time>
      </trkpt>
      <trkpt lat="43.40798" lon="5.4826">
        <ele>587</ele>
        <time>2024-02-14T12:56:44+01:00</time>
      </trkpt>
      <trkpt lat="43.40799" lon="5.48247">
        <ele>587.7</ele>
        <time>2024-02-14T12:59:50+01:00</time>
      </trkpt>
      <trkpt lat="43.40797" lon="5.48234">
        <ele>587</ele>
        <time>2024-02-14T12:59:59+01:00</time>
      </trkpt>
      <trkpt lat="43.40794" lon="5.48221">
        <ele>586.2</ele>
        <time>2024-02-14T13:00:08+01:00</time>
      </trkpt>
      <trkpt lat="43.40794" lon="5.48207">
        <ele>586.6</ele>
        <time>2024-02-14T13:00:18+01:00</time>
      </trkpt>
      <trkpt lat="43.40793" lon="5.48194">
        <ele>587.1</ele>
        <time>2024-02-14T13:00:27+01:00</time>
      </trkpt>
      <trkpt lat="43.40793" lon="5.48181">
        <ele>586.5</ele>
        <time>2024-02-14T13:00:35+01:00</time>
      </trkpt>
      <trkpt lat="43.40794" lon="5.48168">
        <ele>586.4</ele>
        <time>2024-02-14T13:00:44+01:00</time>
      </trkpt>
      <trkpt lat="43.40794" lon="5.48155">
        <ele>586.2</ele>
        <time>2024-02-14T13:00:53+01:00</time>
      </trkpt>
      <trkpt lat="43.40794" lon="5.48141">
        <ele>585.9</ele>
        <time>2024-02-14T13:01:03+01:00</time>
      </trkpt>
      <trkpt lat="43.40795" lon="5.48127">
        <ele>586.2</ele>
        <time>2024-02-14T13:01:11+01:00</time>
      </trkpt>
      <trkpt lat="43.40795" lon="5.48114">
        <ele>586.7</ele>
        <time>2024-02-14T13:01:20+01:00</time>
      </trkpt>
      <trkpt lat="43.40795" lon="5.48101">
        <ele>586.4</ele>
        <time>2024-02-14T13:01:28+01:00</time>
      </trkpt>
      <trkpt lat="43.40795" lon="5.48089">
        <ele>586</ele>
        <time>2024-02-14T13:01:36+01:00</time>
      </trkpt>
      <trkpt lat="43.40795" lon="5.48075">
        <ele>586</ele>
        <time>2024-02-14T13:01:45+01:00</time>
      </trkpt>
      <trkpt lat="43.40794" lon="5.48063">
        <ele>586</ele>
        <time>2024-02-14T13:01:53+01:00</time>
      </trkpt>
      <trkpt lat="43.40792" lon="5.48049">
        <ele>585.8</ele>
        <time>2024-02-14T13:02:02+01:00</time>
      </trkpt>
      <trkpt lat="43.40791" lon="5.48036">
        <ele>586</ele>
        <time>2024-02-14T13:02:11+01:00</time>
      </trkpt>
      <trkpt lat="43.4079" lon="5.48023">
        <ele>586.4</ele>
        <time>2024-02-14T13:02:19+01:00</time>
      </trkpt>
      <trkpt lat="43.40786" lon="5.48011">
        <ele>585.9</ele>
        <time>2024-02-14T13:02:28+01:00</time>
      </trkpt>
      <trkpt lat="43.40783" lon="5.47998">
        <ele>585.5</ele>
        <time>2024-02-14T13:02:38+01:00</time>
      </trkpt>
      <trkpt lat="43.4078" lon="5.47985">
        <ele>584.8</ele>
        <time>2024-02-14T13:02:46+01:00</time>
      </trkpt>
      <trkpt lat="43.40776" lon="5.47974">
        <ele>584.4</ele>
        <time>2024-02-14T13:02:53+01:00</time>
      </trkpt>
      <trkpt lat="43.40772" lon="5.47962">
        <ele>584.6</ele>
        <time>2024-02-14T13:03:01+01:00</time>
      </trkpt>
      <trkpt lat="43.40769" lon="5.4795">
        <ele>585.4</ele>
        <time>2024-02-14T13:03:09+01:00</time>
      </trkpt>
      <trkpt lat="43.40765" lon="5.47937">
        <ele>584.6</ele>
        <time>2024-02-14T13:03:16+01:00</time>
      </trkpt>
      <trkpt lat="43.40762" lon="5.47925">
        <ele>583.4</ele>
        <time>2024-02-14T13:03:24+01:00</time>
      </trkpt>
      <trkpt lat="43.40758" lon="5.47913">
        <ele>582.4</ele>
        <time>2024-02-14T13:03:31+01:00</time>
      </trkpt>
      <trkpt lat="43.40754" lon="5.47902">
        <ele>582.8</ele>
        <time>2024-02-14T13:03:38+01:00</time>
      </trkpt>
      <trkpt lat="43.40752" lon="5.47888">
        <ele>583.9</ele>
        <time>2024-02-14T13:03:47+01:00</time>
      </trkpt>
      <trkpt lat="43.40749" lon="5.47876">
        <ele>583.4</ele>
        <time>2024-02-14T13:03:54+01:00</time>
      </trkpt>
      <trkpt lat="43.40746" lon="5.47863">
        <ele>583.9</ele>
        <time>2024-02-14T13:04:01+01:00</time>
      </trkpt>
      <trkpt lat="43.40743" lon="5.47851">
        <ele>584.2</ele>
        <time>2024-02-14T13:04:10+01:00</time>
      </trkpt>
      <trkpt lat="43.40737" lon="5.4784">
        <ele>584.7</ele>
        <time>2024-02-14T13:04:17+01:00</time>
      </trkpt>
      <trkpt lat="43.40733" lon="5.47828">
        <ele>584.8</ele>
        <time>2024-02-14T13:04:25+01:00</time>
      </trkpt>
      <trkpt lat="43.40729" lon="5.47816">
        <ele>584.3</ele>
        <time>2024-02-14T13:04:34+01:00</time>
      </trkpt>
      <trkpt lat="43.40723" lon="5.47804">
        <ele>584.7</ele>
        <time>2024-02-14T13:04:43+01:00</time>
      </trkpt>
      <trkpt lat="43.40719" lon="5.47792">
        <ele>584.8</ele>
        <time>2024-02-14T13:04:51+01:00</time>
      </trkpt>
      <trkpt lat="43.40713" lon="5.47783">
        <ele>585.8</ele>
        <time>2024-02-14T13:05:00+01:00</time>
      </trkpt>
      <trkpt lat="43.40706" lon="5.47773">
        <ele>586.4</ele>
        <time>2024-02-14T13:05:08+01:00</time>
      </trkpt>
      <trkpt lat="43.40698" lon="5.47765">
        <ele>587.5</ele>
        <time>2024-02-14T13:05:16+01:00</time>
      </trkpt>
      <trkpt lat="43.40691" lon="5.47756">
        <ele>588.4</ele>
        <time>2024-02-14T13:05:25+01:00</time>
      </trkpt>
      <trkpt lat="43.40684" lon="5.47748">
        <ele>589.7</ele>
        <time>2024-02-14T13:05:35+01:00</time>
      </trkpt>
      <trkpt lat="43.40677" lon="5.4774">
        <ele>591.1</ele>
        <time>2024-02-14T13:05:44+01:00</time>
      </trkpt>
      <trkpt lat="43.4067" lon="5.47732">
        <ele>592.8</ele>
        <time>2024-02-14T13:05:53+01:00</time>
      </trkpt>
      <trkpt lat="43.40663" lon="5.47723">
        <ele>593.6</ele>
        <time>2024-02-14T13:06:03+01:00</time>
      </trkpt>
      <trkpt lat="43.40655" lon="5.47715">
        <ele>593.8</ele>
        <time>2024-02-14T13:06:12+01:00</time>
      </trkpt>
      <trkpt lat="43.40647" lon="5.47708">
        <ele>594.5</ele>
        <time>2024-02-14T13:06:21+01:00</time>
      </trkpt>
      <trkpt lat="43.4064" lon="5.477">
        <ele>595.2</ele>
        <time>2024-02-14T13:06:30+01:00</time>
      </trkpt>
      <trkpt lat="43.40632" lon="5.47692">
        <ele>595.7</ele>
        <time>2024-02-14T13:06:39+01:00</time>
      </trkpt>
      <trkpt lat="43.40625" lon="5.47682">
        <ele>595.8</ele>
        <time>2024-02-14T13:06:46+01:00</time>
      </trkpt>
      <trkpt lat="43.40619" lon="5.47671">
        <ele>596.1</ele>
        <time>2024-02-14T13:06:56+01:00</time>
      </trkpt>
      <trkpt lat="43.40614" lon="5.4766">
        <ele>596.6</ele>
        <time>2024-02-14T13:07:04+01:00</time>
      </trkpt>
      <trkpt lat="43.40608" lon="5.4765">
        <ele>598</ele>
        <time>2024-02-14T13:07:12+01:00</time>
      </trkpt>
      <trkpt lat="43.40603" lon="5.47639">
        <ele>598.6</ele>
        <time>2024-02-14T13:07:21+01:00</time>
      </trkpt>
      <trkpt lat="43.40596" lon="5.47628">
        <ele>598.7</ele>
        <time>2024-02-14T13:07:30+01:00</time>
      </trkpt>
      <trkpt lat="43.4059" lon="5.47618">
        <ele>599.5</ele>
        <time>2024-02-14T13:07:38+01:00</time>
      </trkpt>
      <trkpt lat="43.40583" lon="5.47608">
        <ele>600.6</ele>
        <time>2024-02-14T13:07:46+01:00</time>
      </trkpt>
      <trkpt lat="43.4058" lon="5.47597">
        <ele>600.2</ele>
        <time>2024-02-14T13:07:54+01:00</time>
      </trkpt>
      <trkpt lat="43.40573" lon="5.47587">
        <ele>601</ele>
        <time>2024-02-14T13:08:04+01:00</time>
      </trkpt>
      <trkpt lat="43.40566" lon="5.4758">
        <ele>601.7</ele>
        <time>2024-02-14T13:08:12+01:00</time>
      </trkpt>
      <trkpt lat="43.40556" lon="5.47577">
        <ele>603.8</ele>
        <time>2024-02-14T13:08:22+01:00</time>
      </trkpt>
      <trkpt lat="43.40547" lon="5.47572">
        <ele>604.6</ele>
        <time>2024-02-14T13:08:32+01:00</time>
      </trkpt>
      <trkpt lat="43.40539" lon="5.47566">
        <ele>605.3</ele>
        <time>2024-02-14T13:08:40+01:00</time>
      </trkpt>
      <trkpt lat="43.40529" lon="5.47561">
        <ele>606.5</ele>
        <time>2024-02-14T13:08:50+01:00</time>
      </trkpt>
      <trkpt lat="43.40522" lon="5.47551">
        <ele>606.4</ele>
        <time>2024-02-14T13:09:00+01:00</time>
      </trkpt>
      <trkpt lat="43.40518" lon="5.47539">
        <ele>605.8</ele>
        <time>2024-02-14T13:09:09+01:00</time>
      </trkpt>
      <trkpt lat="43.40512" lon="5.47528">
        <ele>607</ele>
        <time>2024-02-14T13:09:17+01:00</time>
      </trkpt>
      <trkpt lat="43.4051" lon="5.47516">
        <ele>606.5</ele>
        <time>2024-02-14T13:09:24+01:00</time>
      </trkpt>
      <trkpt lat="43.40506" lon="5.47504">
        <ele>606.2</ele>
        <time>2024-02-14T13:09:32+01:00</time>
      </trkpt>
      <trkpt lat="43.40501" lon="5.47493">
        <ele>608.3</ele>
        <time>2024-02-14T13:09:40+01:00</time>
      </trkpt>
      <trkpt lat="43.40499" lon="5.4748">
        <ele>609.5</ele>
        <time>2024-02-14T13:09:49+01:00</time>
      </trkpt>
      <trkpt lat="43.40502" lon="5.47468">
        <ele>608.6</ele>
        <time>2024-02-14T13:09:57+01:00</time>
      </trkpt>
      <trkpt lat="43.40505" lon="5.47456">
        <ele>609</ele>
        <time>2024-02-14T13:10:07+01:00</time>
      </trkpt>
      <trkpt lat="43.40505" lon="5.47443">
        <ele>610.5</ele>
        <time>2024-02-14T13:10:17+01:00</time>
      </trkpt>
      <trkpt lat="43.40501" lon="5.47431">
        <ele>610.8</ele>
        <time>2024-02-14T13:10:26+01:00</time>
      </trkpt>
      <trkpt lat="43.40493" lon="5.47422">
        <ele>613.2</ele>
        <time>2024-02-14T13:10:34+01:00</time>
      </trkpt>
      <trkpt lat="43.40485" lon="5.47415">
        <ele>615.5</ele>
        <time>2024-02-14T13:10:44+01:00</time>
      </trkpt>
      <trkpt lat="43.40479" lon="5.47405">
        <ele>615.5</ele>
        <time>2024-02-14T13:10:52+01:00</time>
      </trkpt>
      <trkpt lat="43.40478" lon="5.47392">
        <ele>612.6</ele>
        <time>2024-02-14T13:11:01+01:00</time>
      </trkpt>
      <trkpt lat="43.40477" lon="5.47379">
        <ele>611.9</ele>
        <time>2024-02-14T13:11:10+01:00</time>
      </trkpt>
      <trkpt lat="43.40474" lon="5.47367">
        <ele>613.3</ele>
        <time>2024-02-14T13:11:18+01:00</time>
      </trkpt>
      <trkpt lat="43.4047" lon="5.47354">
        <ele>613.9</ele>
        <time>2024-02-14T13:11:26+01:00</time>
      </trkpt>
      <trkpt lat="43.40464" lon="5.47343">
        <ele>615.2</ele>
        <time>2024-02-14T13:11:33+01:00</time>
      </trkpt>
      <trkpt lat="43.40459" lon="5.47332">
        <ele>615.4</ele>
        <time>2024-02-14T13:11:42+01:00</time>
      </trkpt>
      <trkpt lat="43.40456" lon="5.47319">
        <ele>614</ele>
        <time>2024-02-14T13:11:51+01:00</time>
      </trkpt>
      <trkpt lat="43.40453" lon="5.47308">
        <ele>612.7</ele>
        <time>2024-02-14T13:11:59+01:00</time>
      </trkpt>
      <trkpt lat="43.40452" lon="5.47294">
        <ele>610.8</ele>
        <time>2024-02-14T13:12:08+01:00</time>
      </trkpt>
      <trkpt lat="43.40449" lon="5.47282">
        <ele>609.9</ele>
        <time>2024-02-14T13:12:16+01:00</time>
      </trkpt>
      <trkpt lat="43.40445" lon="5.47271">
        <ele>609.8</ele>
        <time>2024-02-14T13:12:25+01:00</time>
      </trkpt>
      <trkpt lat="43.40439" lon="5.47261">
        <ele>611.3</ele>
        <time>2024-02-14T13:12:34+01:00</time>
      </trkpt>
      <trkpt lat="43.40434" lon="5.47249">
        <ele>610.9</ele>
        <time>2024-02-14T13:12:42+01:00</time>
      </trkpt>
      <trkpt lat="43.4043" lon="5.47237">
        <ele>611.1</ele>
        <time>2024-02-14T13:12:51+01:00</time>
      </trkpt>
      <trkpt lat="43.40425" lon="5.47226">
        <ele>612.4</ele>
        <time>2024-02-14T13:12:59+01:00</time>
      </trkpt>
      <trkpt lat="43.40421" lon="5.47213">
        <ele>613.8</ele>
        <time>2024-02-14T13:13:09+01:00</time>
      </trkpt>
      <trkpt lat="43.40421" lon="5.47201">
        <ele>613.4</ele>
        <time>2024-02-14T13:13:17+01:00</time>
      </trkpt>
      <trkpt lat="43.40428" lon="5.4719">
        <ele>610.8</ele>
        <time>2024-02-14T13:13:26+01:00</time>
      </trkpt>
      <trkpt lat="43.40434" lon="5.4718">
        <ele>610.7</ele>
        <time>2024-02-14T13:13:35+01:00</time>
      </trkpt>
      <trkpt lat="43.40439" lon="5.47169">
        <ele>611.9</ele>
        <time>2024-02-14T13:13:44+01:00</time>
      </trkpt>
      <trkpt lat="43.40443" lon="5.47158">
        <ele>613.2</ele>
        <time>2024-02-14T13:13:52+01:00</time>
      </trkpt>
      <trkpt lat="43.40449" lon="5.47148">
        <ele>614.9</ele>
        <time>2024-02-14T13:14:00+01:00</time>
      </trkpt>
      <trkpt lat="43.40459" lon="5.47146">
        <ele>615</ele>
        <time>2024-02-14T13:14:12+01:00</time>
      </trkpt>
      <trkpt lat="43.40468" lon="5.47142">
        <ele>615.7</ele>
        <time>2024-02-14T13:14:20+01:00</time>
      </trkpt>
      <trkpt lat="43.40478" lon="5.47138">
        <ele>616.8</ele>
        <time>2024-02-14T13:14:29+01:00</time>
      </trkpt>
      <trkpt lat="43.40486" lon="5.47135">
        <ele>616.5</ele>
        <time>2024-02-14T13:14:38+01:00</time>
      </trkpt>
      <trkpt lat="43.40495" lon="5.47128">
        <ele>616.9</ele>
        <time>2024-02-14T13:14:46+01:00</time>
      </trkpt>
      <trkpt lat="43.40501" lon="5.47118">
        <ele>617.4</ele>
        <time>2024-02-14T13:14:54+01:00</time>
      </trkpt>
      <trkpt lat="43.40503" lon="5.47106">
        <ele>619</ele>
        <time>2024-02-14T13:15:03+01:00</time>
      </trkpt>
      <trkpt lat="43.40505" lon="5.47094">
        <ele>620.9</ele>
        <time>2024-02-14T13:15:10+01:00</time>
      </trkpt>
      <trkpt lat="43.4051" lon="5.47084">
        <ele>621</ele>
        <time>2024-02-14T13:15:19+01:00</time>
      </trkpt>
      <trkpt lat="43.40515" lon="5.47073">
        <ele>621.6</ele>
        <time>2024-02-14T13:15:27+01:00</time>
      </trkpt>
      <trkpt lat="43.4052" lon="5.4706">
        <ele>622.9</ele>
        <time>2024-02-14T13:15:36+01:00</time>
      </trkpt>
      <trkpt lat="43.40525" lon="5.47049">
        <ele>623</ele>
        <time>2024-02-14T13:15:45+01:00</time>
      </trkpt>
      <trkpt lat="43.40528" lon="5.47036">
        <ele>623.2</ele>
        <time>2024-02-14T13:15:54+01:00</time>
      </trkpt>
      <trkpt lat="43.40523" lon="5.47025">
        <ele>626.2</ele>
        <time>2024-02-14T13:16:03+01:00</time>
      </trkpt>
      <trkpt lat="43.4052" lon="5.47012">
        <ele>627.2</ele>
        <time>2024-02-14T13:16:11+01:00</time>
      </trkpt>
      <trkpt lat="43.40519" lon="5.46999">
        <ele>627.8</ele>
        <time>2024-02-14T13:16:20+01:00</time>
      </trkpt>
      <trkpt lat="43.40517" lon="5.46984">
        <ele>629.7</ele>
        <time>2024-02-14T13:16:31+01:00</time>
      </trkpt>
      <trkpt lat="43.40521" lon="5.46972">
        <ele>629.1</ele>
        <time>2024-02-14T13:16:40+01:00</time>
      </trkpt>
      <trkpt lat="43.40525" lon="5.46961">
        <ele>629.6</ele>
        <time>2024-02-14T13:16:48+01:00</time>
      </trkpt>
      <trkpt lat="43.4053" lon="5.46949">
        <ele>630.2</ele>
        <time>2024-02-14T13:16:56+01:00</time>
      </trkpt>
      <trkpt lat="43.40534" lon="5.46937">
        <ele>631.3</ele>
        <time>2024-02-14T13:17:07+01:00</time>
      </trkpt>
      <trkpt lat="43.40537" lon="5.46925">
        <ele>631.6</ele>
        <time>2024-02-14T13:18:34+01:00</time>
      </trkpt>
      <trkpt lat="43.40541" lon="5.46912">
        <ele>631.6</ele>
        <time>2024-02-14T13:21:11+01:00</time>
      </trkpt>
      <trkpt lat="43.40542" lon="5.46899">
        <ele>631.9</ele>
        <time>2024-02-14T13:21:18+01:00</time>
      </trkpt>
      <trkpt lat="43.40543" lon="5.46887">
        <ele>632.2</ele>
        <time>2024-02-14T13:21:26+01:00</time>
      </trkpt>
      <trkpt lat="43.40546" lon="5.46874">
        <ele>631.6</ele>
        <time>2024-02-14T13:21:34+01:00</time>
      </trkpt>
      <trkpt lat="43.40549" lon="5.46862">
        <ele>630.8</ele>
        <time>2024-02-14T13:21:42+01:00</time>
      </trkpt>
      <trkpt lat="43.40554" lon="5.4685">
        <ele>631.8</ele>
        <time>2024-02-14T13:21:51+01:00</time>
      </trkpt>
      <trkpt lat="43.40563" lon="5.46843">
        <ele>631.6</ele>
        <time>2024-02-14T13:22:00+01:00</time>
      </trkpt>
      <trkpt lat="43.40572" lon="5.46842">
        <ele>630.3</ele>
        <time>2024-02-14T13:22:09+01:00</time>
      </trkpt>
      <trkpt lat="43.40582" lon="5.4684">
        <ele>629.5</ele>
        <time>2024-02-14T13:22:18+01:00</time>
      </trkpt>
      <trkpt lat="43.40592" lon="5.46839">
        <ele>630.1</ele>
        <time>2024-02-14T13:22:25+01:00</time>
      </trkpt>
      <trkpt lat="43.40602" lon="5.46839">
        <ele>630.1</ele>
        <time>2024-02-14T13:22:34+01:00</time>
      </trkpt>
      <trkpt lat="43.40612" lon="5.46837">
        <ele>630.7</ele>
        <time>2024-02-14T13:22:42+01:00</time>
      </trkpt>
      <trkpt lat="43.40621" lon="5.46836">
        <ele>630.5</ele>
        <time>2024-02-14T13:22:51+01:00</time>
      </trkpt>
      <trkpt lat="43.40624" lon="5.46823">
        <ele>629.6</ele>
        <time>2024-02-14T13:23:01+01:00</time>
      </trkpt>
      <trkpt lat="43.40616" lon="5.46816">
        <ele>630.1</ele>
        <time>2024-02-14T13:23:09+01:00</time>
      </trkpt>
      <trkpt lat="43.4061" lon="5.46806">
        <ele>631.3</ele>
        <time>2024-02-14T13:23:17+01:00</time>
      </trkpt>
      <trkpt lat="43.40602" lon="5.46798">
        <ele>631.7</ele>
        <time>2024-02-14T13:23:25+01:00</time>
      </trkpt>
      <trkpt lat="43.40594" lon="5.46792">
        <ele>633</ele>
        <time>2024-02-14T13:23:34+01:00</time>
      </trkpt>
      <trkpt lat="43.40585" lon="5.46786">
        <ele>634.6</ele>
        <time>2024-02-14T13:23:41+01:00</time>
      </trkpt>
      <trkpt lat="43.40578" lon="5.46779">
        <ele>636.6</ele>
        <time>2024-02-14T13:23:52+01:00</time>
      </trkpt>
      <trkpt lat="43.40573" lon="5.46767">
        <ele>636.4</ele>
        <time>2024-02-14T13:24:03+01:00</time>
      </trkpt>
      <trkpt lat="43.4057" lon="5.46755">
        <ele>635.9</ele>
        <time>2024-02-14T13:24:13+01:00</time>
      </trkpt>
      <trkpt lat="43.40567" lon="5.46742">
        <ele>637</ele>
        <time>2024-02-14T13:24:23+01:00</time>
      </trkpt>
      <trkpt lat="43.40563" lon="5.46731">
        <ele>640.1</ele>
        <time>2024-02-14T13:24:34+01:00</time>
      </trkpt>
      <trkpt lat="43.40558" lon="5.46719">
        <ele>642.4</ele>
        <time>2024-02-14T13:24:42+01:00</time>
      </trkpt>
      <trkpt lat="43.40553" lon="5.46707">
        <ele>643</ele>
        <time>2024-02-14T13:24:52+01:00</time>
      </trkpt>
      <trkpt lat="43.4055" lon="5.46695">
        <ele>643.2</ele>
        <time>2024-02-14T13:25:05+01:00</time>
      </trkpt>
      <trkpt lat="43.40548" lon="5.46683">
        <ele>645.3</ele>
        <time>2024-02-14T13:25:17+01:00</time>
      </trkpt>
      <trkpt lat="43.40548" lon="5.4667">
        <ele>646.8</ele>
        <time>2024-02-14T13:25:26+01:00</time>
      </trkpt>
      <trkpt lat="43.40551" lon="5.46658">
        <ele>647.4</ele>
        <time>2024-02-14T13:25:37+01:00</time>
      </trkpt>
      <trkpt lat="43.40552" lon="5.46644">
        <ele>649.9</ele>
        <time>2024-02-14T13:25:51+01:00</time>
      </trkpt>
      <trkpt lat="43.4055" lon="5.46632">
        <ele>653</ele>
        <time>2024-02-14T13:26:02+01:00</time>
      </trkpt>
      <trkpt lat="43.40549" lon="5.46618">
        <ele>655.5</ele>
        <time>2024-02-14T13:26:15+01:00</time>
      </trkpt>
      <trkpt lat="43.40549" lon="5.46605">
        <ele>656.1</ele>
        <time>2024-02-14T13:26:27+01:00</time>
      </trkpt>
      <trkpt lat="43.40544" lon="5.46593">
        <ele>656.7</ele>
        <time>2024-02-14T13:26:39+01:00</time>
      </trkpt>
      <trkpt lat="43.40541" lon="5.46581">
        <ele>656.1</ele>
        <time>2024-02-14T13:26:51+01:00</time>
      </trkpt>
      <trkpt lat="43.40541" lon="5.46568">
        <ele>655.9</ele>
        <time>2024-02-14T13:28:57+01:00</time>
      </trkpt>
      <trkpt lat="43.40539" lon="5.46556">
        <ele>656.2</ele>
        <time>2024-02-14T13:30:58+01:00</time>
      </trkpt>
      <trkpt lat="43.40534" lon="5.46544">
        <ele>658.3</ele>
        <time>2024-02-14T13:31:09+01:00</time>
      </trkpt>
      <trkpt lat="43.4053" lon="5.46533">
        <ele>661.3</ele>
        <time>2024-02-14T13:31:22+01:00</time>
      </trkpt>
      <trkpt lat="43.40529" lon="5.4652">
        <ele>663</ele>
        <time>2024-02-14T13:31:35+01:00</time>
      </trkpt>
      <trkpt lat="43.40525" lon="5.46508">
        <ele>663.9</ele>
        <time>2024-02-14T13:31:58+01:00</time>
      </trkpt>
      <trkpt lat="43.40525" lon="5.46495">
        <ele>665.1</ele>
        <time>2024-02-14T13:32:22+01:00</time>
      </trkpt>
      <trkpt lat="43.40525" lon="5.46483">
        <ele>666.2</ele>
        <time>2024-02-14T13:32:33+01:00</time>
      </trkpt>
      <trkpt lat="43.40519" lon="5.46472">
        <ele>665.5</ele>
        <time>2024-02-14T13:32:55+01:00</time>
      </trkpt>
      <trkpt lat="43.4052" lon="5.46459">
        <ele>664.5</ele>
        <time>2024-02-14T13:33:22+01:00</time>
      </trkpt>
      <trkpt lat="43.40525" lon="5.46448">
        <ele>665.7</ele>
        <time>2024-02-14T13:33:41+01:00</time>
      </trkpt>
      <trkpt lat="43.40529" lon="5.46436">
        <ele>665.6</ele>
        <time>2024-02-14T13:34:30+01:00</time>
      </trkpt>
      <trkpt lat="43.40529" lon="5.46448">
        <ele>666.5</ele>
        <time>2024-02-14T13:35:38+01:00</time>
      </trkpt>
      <trkpt lat="43.4052" lon="5.46448">
        <ele>663.3</ele>
        <time>2024-02-14T13:39:16+01:00</time>
      </trkpt>
      <trkpt lat="43.40506" lon="5.46447">
        <ele>656.7</ele>
        <time>2024-02-14T13:55:48+01:00</time>
      </trkpt>
      <trkpt lat="43.40487" lon="5.46441">
        <ele>646.4</ele>
        <time>2024-02-14T13:57:07+01:00</time>
      </trkpt>
      <trkpt lat="43.40498" lon="5.46444">
        <ele>652</ele>
        <time>2024-02-14T13:57:29+01:00</time>
      </trkpt>
      <trkpt lat="43.4051" lon="5.46447">
        <ele>658.7</ele>
        <time>2024-02-14T13:58:09+01:00</time>
      </trkpt>
      <trkpt lat="43.40501" lon="5.46446">
        <ele>653.9</ele>
        <time>2024-02-14T14:00:45+01:00</time>
      </trkpt>
      <trkpt lat="43.40524" lon="5.46451">
        <ele>665.4</ele>
        <time>2024-02-14T14:04:11+01:00</time>
      </trkpt>
      <trkpt lat="43.40532" lon="5.46445">
        <ele>665.2</ele>
        <time>2024-02-14T14:19:46+01:00</time>
      </trkpt>
      <trkpt lat="43.40518" lon="5.46448">
        <ele>662.6</ele>
        <time>2024-02-14T14:21:18+01:00</time>
      </trkpt>
      <trkpt lat="43.40529" lon="5.4645">
        <ele>666.7</ele>
        <time>2024-02-14T14:26:19+01:00</time>
      </trkpt>
      <trkpt lat="43.40519" lon="5.46447">
        <ele>662.6</ele>
        <time>2024-02-14T14:33:06+01:00</time>
      </trkpt>
      <trkpt lat="43.40527" lon="5.46453">
        <ele>666.8</ele>
        <time>2024-02-14T14:33:26+01:00</time>
      </trkpt>
      <trkpt lat="43.40533" lon="5.46443">
        <ele>664.6</ele>
        <time>2024-02-14T14:36:19+01:00</time>
      </trkpt>
      <trkpt lat="43.40534" lon="5.46428">
        <ele>663.1</ele>
        <time>2024-02-14T14:37:16+01:00</time>
      </trkpt>
      <trkpt lat="43.40524" lon="5.46429">
        <ele>663.2</ele>
        <time>2024-02-14T14:39:09+01:00</time>
      </trkpt>
      <trkpt lat="43.40534" lon="5.46432">
        <ele>663.2</ele>
        <time>2024-02-14T14:39:20+01:00</time>
      </trkpt>
      <trkpt lat="43.40539" lon="5.46421">
        <ele>661</ele>
        <time>2024-02-14T14:39:35+01:00</time>
      </trkpt>
      <trkpt lat="43.40536" lon="5.46408">
        <ele>662</ele>
        <time>2024-02-14T14:40:04+01:00</time>
      </trkpt>
      <trkpt lat="43.40532" lon="5.46396">
        <ele>663.5</ele>
        <time>2024-02-14T14:40:51+01:00</time>
      </trkpt>
      <trkpt lat="43.4053" lon="5.46384">
        <ele>665.6</ele>
        <time>2024-02-14T14:41:07+01:00</time>
      </trkpt>
      <trkpt lat="43.4053" lon="5.46372">
        <ele>668.5</ele>
        <time>2024-02-14T14:41:19+01:00</time>
      </trkpt>
      <trkpt lat="43.40525" lon="5.4636">
        <ele>669.9</ele>
        <time>2024-02-14T14:41:32+01:00</time>
      </trkpt>
      <trkpt lat="43.40525" lon="5.46348">
        <ele>672.6</ele>
        <time>2024-02-14T14:41:53+01:00</time>
      </trkpt>
      <trkpt lat="43.40523" lon="5.46335">
        <ele>673.9</ele>
        <time>2024-02-14T14:42:23+01:00</time>
      </trkpt>
      <trkpt lat="43.40524" lon="5.46322">
        <ele>678.2</ele>
        <time>2024-02-14T14:42:46+01:00</time>
      </trkpt>
      <trkpt lat="43.40524" lon="5.46309">
        <ele>681.5</ele>
        <time>2024-02-14T14:42:59+01:00</time>
      </trkpt>
      <trkpt lat="43.40525" lon="5.46296">
        <ele>678.7</ele>
        <time>2024-02-14T14:43:19+01:00</time>
      </trkpt>
      <trkpt lat="43.40525" lon="5.46283">
        <ele>672.4</ele>
        <time>2024-02-14T14:43:32+01:00</time>
      </trkpt>
      <trkpt lat="43.40528" lon="5.46271">
        <ele>670.7</ele>
        <time>2024-02-14T14:43:47+01:00</time>
      </trkpt>
      <trkpt lat="43.40527" lon="5.46258">
        <ele>669.7</ele>
        <time>2024-02-14T14:44:00+01:00</time>
      </trkpt>
      <trkpt lat="43.40536" lon="5.46259">
        <ele>665.6</ele>
        <time>2024-02-14T14:45:00+01:00</time>
      </trkpt>
      <trkpt lat="43.4054" lon="5.46247">
        <ele>663.1</ele>
        <time>2024-02-14T14:45:15+01:00</time>
      </trkpt>
      <trkpt lat="43.40549" lon="5.46241">
        <ele>658.3</ele>
        <time>2024-02-14T14:45:43+01:00</time>
      </trkpt>
      <trkpt lat="43.40553" lon="5.4623">
        <ele>655.5</ele>
        <time>2024-02-14T14:46:05+01:00</time>
      </trkpt>
      <trkpt lat="43.40558" lon="5.46219">
        <ele>652.1</ele>
        <time>2024-02-14T14:46:26+01:00</time>
      </trkpt>
      <trkpt lat="43.40558" lon="5.46207">
        <ele>651.4</ele>
        <time>2024-02-14T14:46:49+01:00</time>
      </trkpt>
      <trkpt lat="43.40559" lon="5.46193">
        <ele>649.5</ele>
        <time>2024-02-14T14:47:01+01:00</time>
      </trkpt>
      <trkpt lat="43.40557" lon="5.4618">
        <ele>649.2</ele>
        <time>2024-02-14T14:47:12+01:00</time>
      </trkpt>
      <trkpt lat="43.40556" lon="5.46167">
        <ele>648</ele>
        <time>2024-02-14T14:47:24+01:00</time>
      </trkpt>
      <trkpt lat="43.40559" lon="5.46155">
        <ele>644.6</ele>
        <time>2024-02-14T14:47:44+01:00</time>
      </trkpt>
      <trkpt lat="43.40561" lon="5.46142">
        <ele>641.9</ele>
        <time>2024-02-14T14:47:59+01:00</time>
      </trkpt>
      <trkpt lat="43.40565" lon="5.4613">
        <ele>637.8</ele>
        <time>2024-02-14T14:48:15+01:00</time>
      </trkpt>
      <trkpt lat="43.40566" lon="5.46118">
        <ele>635.5</ele>
        <time>2024-02-14T14:48:30+01:00</time>
      </trkpt>
      <trkpt lat="43.40573" lon="5.46109">
        <ele>631.9</ele>
        <time>2024-02-14T14:49:48+01:00</time>
      </trkpt>
      <trkpt lat="43.40578" lon="5.46099">
        <ele>628.3</ele>
        <time>2024-02-14T14:50:06+01:00</time>
      </trkpt>
      <trkpt lat="43.40583" lon="5.46088">
        <ele>625.6</ele>
        <time>2024-02-14T14:50:32+01:00</time>
      </trkpt>
      <trkpt lat="43.40591" lon="5.4608">
        <ele>620.7</ele>
        <time>2024-02-14T14:50:52+01:00</time>
      </trkpt>
      <trkpt lat="43.40597" lon="5.4607">
        <ele>617.7</ele>
        <time>2024-02-14T14:51:07+01:00</time>
      </trkpt>
      <trkpt lat="43.40604" lon="5.46061">
        <ele>616.5</ele>
        <time>2024-02-14T14:51:28+01:00</time>
      </trkpt>
      <trkpt lat="43.40613" lon="5.46056">
        <ele>616.1</ele>
        <time>2024-02-14T14:52:00+01:00</time>
      </trkpt>
      <trkpt lat="43.40622" lon="5.46056">
        <ele>611.9</ele>
        <time>2024-02-14T14:52:42+01:00</time>
      </trkpt>
      <trkpt lat="43.40631" lon="5.4606">
        <ele>606.7</ele>
        <time>2024-02-14T14:53:35+01:00</time>
      </trkpt>
      <trkpt lat="43.40637" lon="5.46048">
        <ele>607</ele>
        <time>2024-02-14T14:54:04+01:00</time>
      </trkpt>
      <trkpt lat="43.40635" lon="5.46061">
        <ele>604.5</ele>
        <time>2024-02-14T14:54:52+01:00</time>
      </trkpt>
      <trkpt lat="43.40628" lon="5.46068">
        <ele>606.1</ele>
        <time>2024-02-14T14:55:19+01:00</time>
      </trkpt>
      <trkpt lat="43.40623" lon="5.46079">
        <ele>605.9</ele>
        <time>2024-02-14T14:55:47+01:00</time>
      </trkpt>
      <trkpt lat="43.40619" lon="5.46092">
        <ele>606.7</ele>
        <time>2024-02-14T14:55:56+01:00</time>
      </trkpt>
      <trkpt lat="43.40618" lon="5.46104">
        <ele>606.6</ele>
        <time>2024-02-14T14:56:06+01:00</time>
      </trkpt>
      <trkpt lat="43.40615" lon="5.46116">
        <ele>607.4</ele>
        <time>2024-02-14T14:56:14+01:00</time>
      </trkpt>
      <trkpt lat="43.40613" lon="5.46129">
        <ele>608</ele>
        <time>2024-02-14T14:56:22+01:00</time>
      </trkpt>
      <trkpt lat="43.40612" lon="5.46141">
        <ele>608.4</ele>
        <time>2024-02-14T14:56:30+01:00</time>
      </trkpt>
      <trkpt lat="43.40611" lon="5.46153">
        <ele>609.7</ele>
        <time>2024-02-14T14:56:39+01:00</time>
      </trkpt>
      <trkpt lat="43.40612" lon="5.46166">
        <ele>609.5</ele>
        <time>2024-02-14T14:56:49+01:00</time>
      </trkpt>
      <trkpt lat="43.40612" lon="5.46179">
        <ele>612.2</ele>
        <time>2024-02-14T14:56:58+01:00</time>
      </trkpt>
      <trkpt lat="43.40614" lon="5.46192">
        <ele>613.8</ele>
        <time>2024-02-14T14:57:07+01:00</time>
      </trkpt>
      <trkpt lat="43.40618" lon="5.46203">
        <ele>613.5</ele>
        <time>2024-02-14T14:57:16+01:00</time>
      </trkpt>
      <trkpt lat="43.40622" lon="5.46216">
        <ele>613.5</ele>
        <time>2024-02-14T14:57:25+01:00</time>
      </trkpt>
      <trkpt lat="43.40619" lon="5.46228">
        <ele>614.3</ele>
        <time>2024-02-14T14:57:33+01:00</time>
      </trkpt>
      <trkpt lat="43.40616" lon="5.46239">
        <ele>613.7</ele>
        <time>2024-02-14T14:57:43+01:00</time>
      </trkpt>
      <trkpt lat="43.40614" lon="5.46253">
        <ele>612.4</ele>
        <time>2024-02-14T14:57:52+01:00</time>
      </trkpt>
      <trkpt lat="43.40615" lon="5.46265">
        <ele>612</ele>
        <time>2024-02-14T14:58:01+01:00</time>
      </trkpt>
      <trkpt lat="43.40616" lon="5.46278">
        <ele>611.6</ele>
        <time>2024-02-14T14:58:11+01:00</time>
      </trkpt>
      <trkpt lat="43.40617" lon="5.46292">
        <ele>611.9</ele>
        <time>2024-02-14T14:58:20+01:00</time>
      </trkpt>
      <trkpt lat="43.40616" lon="5.46305">
        <ele>613</ele>
        <time>2024-02-14T14:58:29+01:00</time>
      </trkpt>
      <trkpt lat="43.40616" lon="5.46318">
        <ele>612.9</ele>
        <time>2024-02-14T14:58:37+01:00</time>
      </trkpt>
      <trkpt lat="43.40616" lon="5.46331">
        <ele>613.5</ele>
        <time>2024-02-14T14:58:46+01:00</time>
      </trkpt>
      <trkpt lat="43.40616" lon="5.46345">
        <ele>614.4</ele>
        <time>2024-02-14T14:58:55+01:00</time>
      </trkpt>
      <trkpt lat="43.40619" lon="5.46358">
        <ele>614.1</ele>
        <time>2024-02-14T14:59:04+01:00</time>
      </trkpt>
      <trkpt lat="43.40621" lon="5.46371">
        <ele>613.5</ele>
        <time>2024-02-14T14:59:12+01:00</time>
      </trkpt>
      <trkpt lat="43.4062" lon="5.46384">
        <ele>614</ele>
        <time>2024-02-14T14:59:21+01:00</time>
      </trkpt>
      <trkpt lat="43.4062" lon="5.46397">
        <ele>614.8</ele>
        <time>2024-02-14T14:59:28+01:00</time>
      </trkpt>
      <trkpt lat="43.4062" lon="5.4641">
        <ele>616.2</ele>
        <time>2024-02-14T14:59:37+01:00</time>
      </trkpt>
      <trkpt lat="43.40619" lon="5.46423">
        <ele>616.7</ele>
        <time>2024-02-14T14:59:47+01:00</time>
      </trkpt>
      <trkpt lat="43.40615" lon="5.46435">
        <ele>617.9</ele>
        <time>2024-02-14T14:59:55+01:00</time>
      </trkpt>
      <trkpt lat="43.40611" lon="5.46446">
        <ele>619.7</ele>
        <time>2024-02-14T15:00:04+01:00</time>
      </trkpt>
      <trkpt lat="43.40607" lon="5.46457">
        <ele>619.9</ele>
        <time>2024-02-14T15:00:13+01:00</time>
      </trkpt>
      <trkpt lat="43.40602" lon="5.4647">
        <ele>619.9</ele>
        <time>2024-02-14T15:00:24+01:00</time>
      </trkpt>
      <trkpt lat="43.40597" lon="5.46481">
        <ele>621.3</ele>
        <time>2024-02-14T15:00:34+01:00</time>
      </trkpt>
      <trkpt lat="43.40591" lon="5.46491">
        <ele>623.5</ele>
        <time>2024-02-14T15:00:43+01:00</time>
      </trkpt>
      <trkpt lat="43.40587" lon="5.46502">
        <ele>624.7</ele>
        <time>2024-02-14T15:00:53+01:00</time>
      </trkpt>
      <trkpt lat="43.40588" lon="5.46516">
        <ele>625.3</ele>
        <time>2024-02-14T15:01:07+01:00</time>
      </trkpt>
      <trkpt lat="43.40589" lon="5.4653">
        <ele>626.3</ele>
        <time>2024-02-14T15:01:15+01:00</time>
      </trkpt>
      <trkpt lat="43.40592" lon="5.46542">
        <ele>627</ele>
        <time>2024-02-14T15:01:24+01:00</time>
      </trkpt>
      <trkpt lat="43.40594" lon="5.46555">
        <ele>628</ele>
        <time>2024-02-14T15:01:33+01:00</time>
      </trkpt>
      <trkpt lat="43.40592" lon="5.46568">
        <ele>630.5</ele>
        <time>2024-02-14T15:01:41+01:00</time>
      </trkpt>
      <trkpt lat="43.40594" lon="5.46582">
        <ele>631.3</ele>
        <time>2024-02-14T15:01:50+01:00</time>
      </trkpt>
      <trkpt lat="43.40597" lon="5.46595">
        <ele>630.7</ele>
        <time>2024-02-14T15:01:59+01:00</time>
      </trkpt>
      <trkpt lat="43.40598" lon="5.46609">
        <ele>631.5</ele>
        <time>2024-02-14T15:02:08+01:00</time>
      </trkpt>
      <trkpt lat="43.40595" lon="5.46622">
        <ele>631</ele>
        <time>2024-02-14T15:02:17+01:00</time>
      </trkpt>
      <trkpt lat="43.40588" lon="5.46633">
        <ele>631.9</ele>
        <time>2024-02-14T15:02:26+01:00</time>
      </trkpt>
      <trkpt lat="43.40581" lon="5.46642">
        <ele>633.3</ele>
        <time>2024-02-14T15:02:36+01:00</time>
      </trkpt>
      <trkpt lat="43.40578" lon="5.46654">
        <ele>631.8</ele>
        <time>2024-02-14T15:02:44+01:00</time>
      </trkpt>
      <trkpt lat="43.4057" lon="5.46663">
        <ele>633.9</ele>
        <time>2024-02-14T15:02:55+01:00</time>
      </trkpt>
      <trkpt lat="43.40566" lon="5.46675">
        <ele>635.1</ele>
        <time>2024-02-14T15:03:04+01:00</time>
      </trkpt>
      <trkpt lat="43.40559" lon="5.46685">
        <ele>638.1</ele>
        <time>2024-02-14T15:03:18+01:00</time>
      </trkpt>
      <trkpt lat="43.40559" lon="5.46698">
        <ele>637.9</ele>
        <time>2024-02-14T15:03:26+01:00</time>
      </trkpt>
      <trkpt lat="43.40561" lon="5.46712">
        <ele>639</ele>
        <time>2024-02-14T15:03:39+01:00</time>
      </trkpt>
      <trkpt lat="43.40563" lon="5.46724">
        <ele>640.1</ele>
        <time>2024-02-14T15:03:48+01:00</time>
      </trkpt>
      <trkpt lat="43.40567" lon="5.46736">
        <ele>637.6</ele>
        <time>2024-02-14T15:05:25+01:00</time>
      </trkpt>
      <trkpt lat="43.4057" lon="5.46748">
        <ele>634.9</ele>
        <time>2024-02-14T15:05:38+01:00</time>
      </trkpt>
      <trkpt lat="43.40572" lon="5.4676">
        <ele>635.7</ele>
        <time>2024-02-14T15:05:47+01:00</time>
      </trkpt>
      <trkpt lat="43.40576" lon="5.46772">
        <ele>635.6</ele>
        <time>2024-02-14T15:05:58+01:00</time>
      </trkpt>
      <trkpt lat="43.40582" lon="5.46782">
        <ele>635.1</ele>
        <time>2024-02-14T15:06:15+01:00</time>
      </trkpt>
      <trkpt lat="43.4059" lon="5.46789">
        <ele>633.4</ele>
        <time>2024-02-14T15:06:28+01:00</time>
      </trkpt>
      <trkpt lat="43.406" lon="5.46795">
        <ele>631.5</ele>
        <time>2024-02-14T15:06:41+01:00</time>
      </trkpt>
      <trkpt lat="43.40607" lon="5.46803">
        <ele>631.7</ele>
        <time>2024-02-14T15:06:50+01:00</time>
      </trkpt>
      <trkpt lat="43.40612" lon="5.46813">
        <ele>631.2</ele>
        <time>2024-02-14T15:07:00+01:00</time>
      </trkpt>
      <trkpt lat="43.4062" lon="5.46819">
        <ele>629.8</ele>
        <time>2024-02-14T15:07:10+01:00</time>
      </trkpt>
      <trkpt lat="43.40621" lon="5.46832">
        <ele>631.1</ele>
        <time>2024-02-14T15:07:18+01:00</time>
      </trkpt>
      <trkpt lat="43.40613" lon="5.46839">
        <ele>630.2</ele>
        <time>2024-02-14T15:07:28+01:00</time>
      </trkpt>
      <trkpt lat="43.40604" lon="5.46839">
        <ele>630</ele>
        <time>2024-02-14T15:07:38+01:00</time>
      </trkpt>
      <trkpt lat="43.40595" lon="5.46839">
        <ele>629.9</ele>
        <time>2024-02-14T15:07:47+01:00</time>
      </trkpt>
      <trkpt lat="43.40585" lon="5.46841">
        <ele>629.2</ele>
        <time>2024-02-14T15:07:57+01:00</time>
      </trkpt>
      <trkpt lat="43.40576" lon="5.46844">
        <ele>629</ele>
        <time>2024-02-14T15:08:05+01:00</time>
      </trkpt>
      <trkpt lat="43.40566" lon="5.46847">
        <ele>629.5</ele>
        <time>2024-02-14T15:08:16+01:00</time>
      </trkpt>
      <trkpt lat="43.40557" lon="5.46851">
        <ele>629.8</ele>
        <time>2024-02-14T15:08:25+01:00</time>
      </trkpt>
      <trkpt lat="43.40551" lon="5.46861">
        <ele>629.9</ele>
        <time>2024-02-14T15:08:38+01:00</time>
      </trkpt>
      <trkpt lat="43.40549" lon="5.46873">
        <ele>629.9</ele>
        <time>2024-02-14T15:08:48+01:00</time>
      </trkpt>
      <trkpt lat="43.40547" lon="5.46886">
        <ele>630.4</ele>
        <time>2024-02-14T15:08:56+01:00</time>
      </trkpt>
      <trkpt lat="43.40544" lon="5.46899">
        <ele>630.7</ele>
        <time>2024-02-14T15:09:05+01:00</time>
      </trkpt>
      <trkpt lat="43.40542" lon="5.46912">
        <ele>630.5</ele>
        <time>2024-02-14T15:09:14+01:00</time>
      </trkpt>
      <trkpt lat="43.4054" lon="5.46925">
        <ele>630.2</ele>
        <time>2024-02-14T15:09:22+01:00</time>
      </trkpt>
      <trkpt lat="43.40538" lon="5.46938">
        <ele>629.1</ele>
        <time>2024-02-14T15:09:31+01:00</time>
      </trkpt>
      <trkpt lat="43.40534" lon="5.4695">
        <ele>628.6</ele>
        <time>2024-02-14T15:09:40+01:00</time>
      </trkpt>
      <trkpt lat="43.40525" lon="5.46958">
        <ele>630.1</ele>
        <time>2024-02-14T15:09:49+01:00</time>
      </trkpt>
      <trkpt lat="43.40522" lon="5.46971">
        <ele>628.9</ele>
        <time>2024-02-14T15:09:58+01:00</time>
      </trkpt>
      <trkpt lat="43.40519" lon="5.46984">
        <ele>628.8</ele>
        <time>2024-02-14T15:10:09+01:00</time>
      </trkpt>
      <trkpt lat="43.4052" lon="5.46998">
        <ele>627.5</ele>
        <time>2024-02-14T15:10:20+01:00</time>
      </trkpt>
      <trkpt lat="43.4052" lon="5.4701">
        <ele>627.3</ele>
        <time>2024-02-14T15:10:30+01:00</time>
      </trkpt>
      <trkpt lat="43.40522" lon="5.47024">
        <ele>626.6</ele>
        <time>2024-02-14T15:10:41+01:00</time>
      </trkpt>
      <trkpt lat="43.40524" lon="5.47036">
        <ele>624.7</ele>
        <time>2024-02-14T15:10:52+01:00</time>
      </trkpt>
      <trkpt lat="43.40525" lon="5.47049">
        <ele>622.9</ele>
        <time>2024-02-14T15:11:00+01:00</time>
      </trkpt>
      <trkpt lat="43.40519" lon="5.4706">
        <ele>623</ele>
        <time>2024-02-14T15:11:10+01:00</time>
      </trkpt>
      <trkpt lat="43.40516" lon="5.47072">
        <ele>621.6</ele>
        <time>2024-02-14T15:11:19+01:00</time>
      </trkpt>
      <trkpt lat="43.40511" lon="5.47083">
        <ele>621</ele>
        <time>2024-02-14T15:11:28+01:00</time>
      </trkpt>
      <trkpt lat="43.40506" lon="5.47094">
        <ele>619.9</ele>
        <time>2024-02-14T15:11:36+01:00</time>
      </trkpt>
      <trkpt lat="43.40504" lon="5.47107">
        <ele>617.9</ele>
        <time>2024-02-14T15:11:44+01:00</time>
      </trkpt>
      <trkpt lat="43.405" lon="5.47119">
        <ele>617.6</ele>
        <time>2024-02-14T15:11:53+01:00</time>
      </trkpt>
      <trkpt lat="43.40494" lon="5.4713">
        <ele>616.6</ele>
        <time>2024-02-14T15:12:02+01:00</time>
      </trkpt>
      <trkpt lat="43.40486" lon="5.47138">
        <ele>615.9</ele>
        <time>2024-02-14T15:12:11+01:00</time>
      </trkpt>
      <trkpt lat="43.40476" lon="5.47141">
        <ele>615.8</ele>
        <time>2024-02-14T15:12:20+01:00</time>
      </trkpt>
      <trkpt lat="43.40468" lon="5.47145">
        <ele>614.6</ele>
        <time>2024-02-14T15:12:29+01:00</time>
      </trkpt>
      <trkpt lat="43.40458" lon="5.47147">
        <ele>614.4</ele>
        <time>2024-02-14T15:12:38+01:00</time>
      </trkpt>
      <trkpt lat="43.40449" lon="5.47146">
        <ele>615.5</ele>
        <time>2024-02-14T15:12:50+01:00</time>
      </trkpt>
      <trkpt lat="43.40443" lon="5.47157">
        <ele>613.3</ele>
        <time>2024-02-14T15:12:58+01:00</time>
      </trkpt>
      <trkpt lat="43.40438" lon="5.47168">
        <ele>612.4</ele>
        <time>2024-02-14T15:13:07+01:00</time>
      </trkpt>
      <trkpt lat="43.40435" lon="5.47181">
        <ele>610.1</ele>
        <time>2024-02-14T15:13:20+01:00</time>
      </trkpt>
      <trkpt lat="43.4043" lon="5.47192">
        <ele>609.2</ele>
        <time>2024-02-14T15:13:28+01:00</time>
      </trkpt>
      <trkpt lat="43.40425" lon="5.47203">
        <ele>611.4</ele>
        <time>2024-02-14T15:13:38+01:00</time>
      </trkpt>
      <trkpt lat="43.40425" lon="5.47216">
        <ele>611.6</ele>
        <time>2024-02-14T15:13:49+01:00</time>
      </trkpt>
      <trkpt lat="43.40429" lon="5.47229">
        <ele>609.9</ele>
        <time>2024-02-14T15:13:58+01:00</time>
      </trkpt>
      <trkpt lat="43.40432" lon="5.4724">
        <ele>610.3</ele>
        <time>2024-02-14T15:14:08+01:00</time>
      </trkpt>
      <trkpt lat="43.40438" lon="5.47252">
        <ele>609.1</ele>
        <time>2024-02-14T15:14:17+01:00</time>
      </trkpt>
      <trkpt lat="43.40443" lon="5.47262">
        <ele>608.3</ele>
        <time>2024-02-14T15:14:25+01:00</time>
      </trkpt>
      <trkpt lat="43.40448" lon="5.47273">
        <ele>608.4</ele>
        <time>2024-02-14T15:14:34+01:00</time>
      </trkpt>
      <trkpt lat="43.40453" lon="5.47284">
        <ele>608.3</ele>
        <time>2024-02-14T15:14:42+01:00</time>
      </trkpt>
      <trkpt lat="43.40454" lon="5.47297">
        <ele>609.7</ele>
        <time>2024-02-14T15:14:56+01:00</time>
      </trkpt>
      <trkpt lat="43.40459" lon="5.47309">
        <ele>609.4</ele>
        <time>2024-02-14T15:15:06+01:00</time>
      </trkpt>
      <trkpt lat="43.40462" lon="5.47321">
        <ele>610.7</ele>
        <time>2024-02-14T15:15:15+01:00</time>
      </trkpt>
      <trkpt lat="43.40465" lon="5.47333">
        <ele>611.5</ele>
        <time>2024-02-14T15:15:24+01:00</time>
      </trkpt>
      <trkpt lat="43.40469" lon="5.47345">
        <ele>611.5</ele>
        <time>2024-02-14T15:15:34+01:00</time>
      </trkpt>
      <trkpt lat="43.40475" lon="5.47356">
        <ele>610.9</ele>
        <time>2024-02-14T15:15:44+01:00</time>
      </trkpt>
      <trkpt lat="43.40477" lon="5.47368">
        <ele>611</ele>
        <time>2024-02-14T15:15:54+01:00</time>
      </trkpt>
      <trkpt lat="43.4048" lon="5.47382">
        <ele>610.3</ele>
        <time>2024-02-14T15:16:03+01:00</time>
      </trkpt>
      <trkpt lat="43.40482" lon="5.47396">
        <ele>611.5</ele>
        <time>2024-02-14T15:16:15+01:00</time>
      </trkpt>
      <trkpt lat="43.40485" lon="5.47409">
        <ele>613.7</ele>
        <time>2024-02-14T15:16:22+01:00</time>
      </trkpt>
      <trkpt lat="43.4049" lon="5.4742">
        <ele>614.2</ele>
        <time>2024-02-14T15:16:32+01:00</time>
      </trkpt>
      <trkpt lat="43.40499" lon="5.47427">
        <ele>611.2</ele>
        <time>2024-02-14T15:16:42+01:00</time>
      </trkpt>
      <trkpt lat="43.40506" lon="5.47437">
        <ele>609.5</ele>
        <time>2024-02-14T15:16:51+01:00</time>
      </trkpt>
      <trkpt lat="43.40509" lon="5.47449">
        <ele>608.1</ele>
        <time>2024-02-14T15:16:59+01:00</time>
      </trkpt>
      <trkpt lat="43.40506" lon="5.47461">
        <ele>607.6</ele>
        <time>2024-02-14T15:17:07+01:00</time>
      </trkpt>
      <trkpt lat="43.40504" lon="5.47474">
        <ele>606.9</ele>
        <time>2024-02-14T15:17:16+01:00</time>
      </trkpt>
      <trkpt lat="43.40503" lon="5.47487">
        <ele>607.6</ele>
        <time>2024-02-14T15:17:26+01:00</time>
      </trkpt>
      <trkpt lat="43.40505" lon="5.47499">
        <ele>606.5</ele>
        <time>2024-02-14T15:17:34+01:00</time>
      </trkpt>
      <trkpt lat="43.40509" lon="5.47511">
        <ele>606.2</ele>
        <time>2024-02-14T15:17:43+01:00</time>
      </trkpt>
      <trkpt lat="43.40511" lon="5.47524">
        <ele>606.8</ele>
        <time>2024-02-14T15:17:52+01:00</time>
      </trkpt>
      <trkpt lat="43.40516" lon="5.47535">
        <ele>606.4</ele>
        <time>2024-02-14T15:18:00+01:00</time>
      </trkpt>
      <trkpt lat="43.4052" lon="5.47547">
        <ele>606.2</ele>
        <time>2024-02-14T15:18:09+01:00</time>
      </trkpt>
      <trkpt lat="43.40524" lon="5.47559">
        <ele>607.3</ele>
        <time>2024-02-14T15:18:19+01:00</time>
      </trkpt>
      <trkpt lat="43.40531" lon="5.47568">
        <ele>608.1</ele>
        <time>2024-02-14T15:18:29+01:00</time>
      </trkpt>
      <trkpt lat="43.40541" lon="5.47571">
        <ele>606.3</ele>
        <time>2024-02-14T15:18:39+01:00</time>
      </trkpt>
      <trkpt lat="43.4055" lon="5.47574">
        <ele>604.5</ele>
        <time>2024-02-14T15:18:48+01:00</time>
      </trkpt>
      <trkpt lat="43.40559" lon="5.47578">
        <ele>603</ele>
        <time>2024-02-14T15:18:58+01:00</time>
      </trkpt>
      <trkpt lat="43.40569" lon="5.47582">
        <ele>601.1</ele>
        <time>2024-02-14T15:19:07+01:00</time>
      </trkpt>
      <trkpt lat="43.40577" lon="5.4759">
        <ele>600.2</ele>
        <time>2024-02-14T15:19:14+01:00</time>
      </trkpt>
      <trkpt lat="43.40581" lon="5.47601">
        <ele>600.5</ele>
        <time>2024-02-14T15:19:21+01:00</time>
      </trkpt>
      <trkpt lat="43.40586" lon="5.47612">
        <ele>600</ele>
        <time>2024-02-14T15:19:30+01:00</time>
      </trkpt>
      <trkpt lat="43.40593" lon="5.47622">
        <ele>598.9</ele>
        <time>2024-02-14T15:19:39+01:00</time>
      </trkpt>
      <trkpt lat="43.40599" lon="5.47632">
        <ele>598.7</ele>
        <time>2024-02-14T15:19:47+01:00</time>
      </trkpt>
      <trkpt lat="43.40606" lon="5.47641">
        <ele>598</ele>
        <time>2024-02-14T15:19:54+01:00</time>
      </trkpt>
      <trkpt lat="43.40611" lon="5.47653">
        <ele>597.2</ele>
        <time>2024-02-14T15:20:03+01:00</time>
      </trkpt>
      <trkpt lat="43.40617" lon="5.47663">
        <ele>595.8</ele>
        <time>2024-02-14T15:20:11+01:00</time>
      </trkpt>
      <trkpt lat="43.40622" lon="5.47674">
        <ele>595.5</ele>
        <time>2024-02-14T15:20:19+01:00</time>
      </trkpt>
      <trkpt lat="43.40628" lon="5.47684">
        <ele>595.2</ele>
        <time>2024-02-14T15:20:28+01:00</time>
      </trkpt>
      <trkpt lat="43.40634" lon="5.47694">
        <ele>595.8</ele>
        <time>2024-02-14T15:20:36+01:00</time>
      </trkpt>
      <trkpt lat="43.40642" lon="5.47701">
        <ele>594.8</ele>
        <time>2024-02-14T15:20:46+01:00</time>
      </trkpt>
      <trkpt lat="43.40648" lon="5.47711">
        <ele>594.6</ele>
        <time>2024-02-14T15:20:56+01:00</time>
      </trkpt>
      <trkpt lat="43.40656" lon="5.47717">
        <ele>593.8</ele>
        <time>2024-02-14T15:21:04+01:00</time>
      </trkpt>
      <trkpt lat="43.40665" lon="5.47725">
        <ele>593.5</ele>
        <time>2024-02-14T15:21:14+01:00</time>
      </trkpt>
      <trkpt lat="43.40672" lon="5.47735">
        <ele>592.2</ele>
        <time>2024-02-14T15:21:23+01:00</time>
      </trkpt>
      <trkpt lat="43.40679" lon="5.47743">
        <ele>590.6</ele>
        <time>2024-02-14T15:21:31+01:00</time>
      </trkpt>
      <trkpt lat="43.40686" lon="5.47752">
        <ele>589.4</ele>
        <time>2024-02-14T15:21:40+01:00</time>
      </trkpt>
      <trkpt lat="43.40692" lon="5.47762">
        <ele>588.7</ele>
        <time>2024-02-14T15:21:51+01:00</time>
      </trkpt>
      <trkpt lat="43.40701" lon="5.47767">
        <ele>586.9</ele>
        <time>2024-02-14T15:21:57+01:00</time>
      </trkpt>
      <trkpt lat="43.40706" lon="5.47779">
        <ele>587.2</ele>
        <time>2024-02-14T15:22:07+01:00</time>
      </trkpt>
      <trkpt lat="43.40714" lon="5.47785">
        <ele>585.6</ele>
        <time>2024-02-14T15:22:14+01:00</time>
      </trkpt>
      <trkpt lat="43.4072" lon="5.47796">
        <ele>584.8</ele>
        <time>2024-02-14T15:22:23+01:00</time>
      </trkpt>
      <trkpt lat="43.40726" lon="5.47807">
        <ele>584.2</ele>
        <time>2024-02-14T15:22:33+01:00</time>
      </trkpt>
      <trkpt lat="43.4073" lon="5.47819">
        <ele>584.3</ele>
        <time>2024-02-14T15:22:43+01:00</time>
      </trkpt>
      <trkpt lat="43.40734" lon="5.4783">
        <ele>584.8</ele>
        <time>2024-02-14T15:22:54+01:00</time>
      </trkpt>
      <trkpt lat="43.40741" lon="5.4784">
        <ele>584.5</ele>
        <time>2024-02-14T15:24:16+01:00</time>
      </trkpt>
      <trkpt lat="43.40748" lon="5.47833">
        <ele>584</ele>
        <time>2024-02-14T15:24:39+01:00</time>
      </trkpt>
      <trkpt lat="43.40747" lon="5.47819">
        <ele>582</ele>
        <time>2024-02-14T15:25:03+01:00</time>
      </trkpt>
      <trkpt lat="43.40742" lon="5.47808">
        <ele>581.1</ele>
        <time>2024-02-14T15:25:18+01:00</time>
      </trkpt>
      <trkpt lat="43.40743" lon="5.47795">
        <ele>579.3</ele>
        <time>2024-02-14T15:25:28+01:00</time>
      </trkpt>
      <trkpt lat="43.40748" lon="5.47784">
        <ele>576.4</ele>
        <time>2024-02-14T15:25:42+01:00</time>
      </trkpt>
      <trkpt lat="43.40752" lon="5.47772">
        <ele>574.1</ele>
        <time>2024-02-14T15:25:55+01:00</time>
      </trkpt>
      <trkpt lat="43.4076" lon="5.47765">
        <ele>572.9</ele>
        <time>2024-02-14T15:26:07+01:00</time>
      </trkpt>
      <trkpt lat="43.40769" lon="5.47766">
        <ele>573.9</ele>
        <time>2024-02-14T15:26:23+01:00</time>
      </trkpt>
      <trkpt lat="43.40778" lon="5.47764">
        <ele>574.1</ele>
        <time>2024-02-14T15:26:34+01:00</time>
      </trkpt>
      <trkpt lat="43.40787" lon="5.47759">
        <ele>573.9</ele>
        <time>2024-02-14T15:26:43+01:00</time>
      </trkpt>
      <trkpt lat="43.40798" lon="5.47757">
        <ele>575.1</ele>
        <time>2024-02-14T15:26:57+01:00</time>
      </trkpt>
      <trkpt lat="43.40806" lon="5.47749">
        <ele>573.7</ele>
        <time>2024-02-14T15:27:14+01:00</time>
      </trkpt>
      <trkpt lat="43.40813" lon="5.47741">
        <ele>573.3</ele>
        <time>2024-02-14T15:27:24+01:00</time>
      </trkpt>
      <trkpt lat="43.4082" lon="5.4773">
        <ele>572.3</ele>
        <time>2024-02-14T15:27:34+01:00</time>
      </trkpt>
      <trkpt lat="43.40824" lon="5.47719">
        <ele>571.1</ele>
        <time>2024-02-14T15:27:43+01:00</time>
      </trkpt>
      <trkpt lat="43.40831" lon="5.47709">
        <ele>572.3</ele>
        <time>2024-02-14T15:27:52+01:00</time>
      </trkpt>
      <trkpt lat="43.40838" lon="5.477">
        <ele>572.5</ele>
        <time>2024-02-14T15:28:03+01:00</time>
      </trkpt>
      <trkpt lat="43.40846" lon="5.47693">
        <ele>572.7</ele>
        <time>2024-02-14T15:28:17+01:00</time>
      </trkpt>
      <trkpt lat="43.40854" lon="5.47685">
        <ele>572.7</ele>
        <time>2024-02-14T15:28:36+01:00</time>
      </trkpt>
      <trkpt lat="43.40864" lon="5.47684">
        <ele>572.9</ele>
        <time>2024-02-14T15:28:53+01:00</time>
      </trkpt>
      <trkpt lat="43.40871" lon="5.47692">
        <ele>572.5</ele>
        <time>2024-02-14T15:29:09+01:00</time>
      </trkpt>
      <trkpt lat="43.4088" lon="5.47696">
        <ele>571.3</ele>
        <time>2024-02-14T15:29:17+01:00</time>
      </trkpt>
      <trkpt lat="43.4089" lon="5.47696">
        <ele>569.2</ele>
        <time>2024-02-14T15:29:27+01:00</time>
      </trkpt>
      <trkpt lat="43.40898" lon="5.477">
        <ele>569.3</ele>
        <time>2024-02-14T15:29:36+01:00</time>
      </trkpt>
      <trkpt lat="43.40906" lon="5.47708">
        <ele>570.1</ele>
        <time>2024-02-14T15:29:48+01:00</time>
      </trkpt>
      <trkpt lat="43.40913" lon="5.47716">
        <ele>570.6</ele>
        <time>2024-02-14T15:29:59+01:00</time>
      </trkpt>
      <trkpt lat="43.40918" lon="5.47728">
        <ele>570.2</ele>
        <time>2024-02-14T15:30:09+01:00</time>
      </trkpt>
      <trkpt lat="43.4092" lon="5.4774">
        <ele>568.4</ele>
        <time>2024-02-14T15:30:28+01:00</time>
      </trkpt>
      <trkpt lat="43.4092" lon="5.47753">
        <ele>568.7</ele>
        <time>2024-02-14T15:30:36+01:00</time>
      </trkpt>
      <trkpt lat="43.40917" lon="5.47765">
        <ele>569.8</ele>
        <time>2024-02-14T15:30:44+01:00</time>
      </trkpt>
      <trkpt lat="43.40915" lon="5.47778">
        <ele>569.3</ele>
        <time>2024-02-14T15:30:53+01:00</time>
      </trkpt>
      <trkpt lat="43.40916" lon="5.47791">
        <ele>571.3</ele>
        <time>2024-02-14T15:31:02+01:00</time>
      </trkpt>
      <trkpt lat="43.4092" lon="5.47804">
        <ele>570.3</ele>
        <time>2024-02-14T15:31:13+01:00</time>
      </trkpt>
      <trkpt lat="43.40922" lon="5.47816">
        <ele>567.5</ele>
        <time>2024-02-14T15:31:23+01:00</time>
      </trkpt>
      <trkpt lat="43.4092" lon="5.47828">
        <ele>567.9</ele>
        <time>2024-02-14T15:31:33+01:00</time>
      </trkpt>
      <trkpt lat="43.40918" lon="5.47841">
        <ele>567.8</ele>
        <time>2024-02-14T15:31:46+01:00</time>
      </trkpt>
      <trkpt lat="43.40914" lon="5.47853">
        <ele>568.3</ele>
        <time>2024-02-14T15:32:00+01:00</time>
      </trkpt>
      <trkpt lat="43.40915" lon="5.47866">
        <ele>566.4</ele>
        <time>2024-02-14T15:32:11+01:00</time>
      </trkpt>
      <trkpt lat="43.40915" lon="5.47878">
        <ele>566.8</ele>
        <time>2024-02-14T15:32:19+01:00</time>
      </trkpt>
      <trkpt lat="43.40916" lon="5.47891">
        <ele>567.2</ele>
        <time>2024-02-14T15:32:29+01:00</time>
      </trkpt>
      <trkpt lat="43.40922" lon="5.47903">
        <ele>566.6</ele>
        <time>2024-02-14T15:32:39+01:00</time>
      </trkpt>
      <trkpt lat="43.40928" lon="5.47914">
        <ele>566.2</ele>
        <time>2024-02-14T15:32:51+01:00</time>
      </trkpt>
      <trkpt lat="43.40931" lon="5.47927">
        <ele>565.2</ele>
        <time>2024-02-14T15:33:00+01:00</time>
      </trkpt>
      <trkpt lat="43.40931" lon="5.4794">
        <ele>564.3</ele>
        <time>2024-02-14T15:33:09+01:00</time>
      </trkpt>
      <trkpt lat="43.40927" lon="5.47951">
        <ele>565.1</ele>
        <time>2024-02-14T15:33:18+01:00</time>
      </trkpt>
      <trkpt lat="43.40923" lon="5.47963">
        <ele>565.6</ele>
        <time>2024-02-14T15:33:27+01:00</time>
      </trkpt>
      <trkpt lat="43.40926" lon="5.47975">
        <ele>562.5</ele>
        <time>2024-02-14T15:33:35+01:00</time>
      </trkpt>
      <trkpt lat="43.40923" lon="5.47987">
        <ele>563.9</ele>
        <time>2024-02-14T15:33:44+01:00</time>
      </trkpt>
      <trkpt lat="43.40922" lon="5.48">
        <ele>564.3</ele>
        <time>2024-02-14T15:33:52+01:00</time>
      </trkpt>
      <trkpt lat="43.40922" lon="5.48014">
        <ele>565.1</ele>
        <time>2024-02-14T15:34:04+01:00</time>
      </trkpt>
      <trkpt lat="43.40921" lon="5.48027">
        <ele>565.8</ele>
        <time>2024-02-14T15:34:13+01:00</time>
      </trkpt>
      <trkpt lat="43.40923" lon="5.48039">
        <ele>563.1</ele>
        <time>2024-02-14T15:34:24+01:00</time>
      </trkpt>
      <trkpt lat="43.40924" lon="5.48052">
        <ele>560.8</ele>
        <time>2024-02-14T15:34:35+01:00</time>
      </trkpt>
      <trkpt lat="43.40924" lon="5.48067">
        <ele>559.5</ele>
        <time>2024-02-14T15:34:46+01:00</time>
      </trkpt>
      <trkpt lat="43.40923" lon="5.4808">
        <ele>558.8</ele>
        <time>2024-02-14T15:34:57+01:00</time>
      </trkpt>
      <trkpt lat="43.40924" lon="5.48092">
        <ele>556.6</ele>
        <time>2024-02-14T15:35:09+01:00</time>
      </trkpt>
      <trkpt lat="43.40925" lon="5.48105">
        <ele>555.1</ele>
        <time>2024-02-14T15:35:22+01:00</time>
      </trkpt>
      <trkpt lat="43.40923" lon="5.48118">
        <ele>555</ele>
        <time>2024-02-14T15:35:34+01:00</time>
      </trkpt>
      <trkpt lat="43.40925" lon="5.48132">
        <ele>552.5</ele>
        <time>2024-02-14T15:35:46+01:00</time>
      </trkpt>
      <trkpt lat="43.40923" lon="5.48145">
        <ele>552.5</ele>
        <time>2024-02-14T15:35:55+01:00</time>
      </trkpt>
      <trkpt lat="43.40924" lon="5.48157">
        <ele>551.5</ele>
        <time>2024-02-14T15:36:04+01:00</time>
      </trkpt>
      <trkpt lat="43.40925" lon="5.48171">
        <ele>551</ele>
        <time>2024-02-14T15:36:14+01:00</time>
      </trkpt>
      <trkpt lat="43.40925" lon="5.48185">
        <ele>550.2</ele>
        <time>2024-02-14T15:36:25+01:00</time>
      </trkpt>
      <trkpt lat="43.40926" lon="5.48197">
        <ele>549.4</ele>
        <time>2024-02-14T15:36:34+01:00</time>
      </trkpt>
      <trkpt lat="43.40925" lon="5.48211">
        <ele>548.9</ele>
        <time>2024-02-14T15:36:46+01:00</time>
      </trkpt>
      <trkpt lat="43.40925" lon="5.48223">
        <ele>547.9</ele>
        <time>2024-02-14T15:36:54+01:00</time>
      </trkpt>
      <trkpt lat="43.40924" lon="5.48236">
        <ele>547.9</ele>
        <time>2024-02-14T15:37:03+01:00</time>
      </trkpt>
      <trkpt lat="43.40923" lon="5.48249">
        <ele>547.9</ele>
        <time>2024-02-14T15:37:14+01:00</time>
      </trkpt>
      <trkpt lat="43.40921" lon="5.48261">
        <ele>548.3</ele>
        <time>2024-02-14T15:37:22+01:00</time>
      </trkpt>
      <trkpt lat="43.4092" lon="5.48275">
        <ele>548</ele>
        <time>2024-02-14T15:37:35+01:00</time>
      </trkpt>
      <trkpt lat="43.4092" lon="5.48288">
        <ele>546.9</ele>
        <time>2024-02-14T15:37:45+01:00</time>
      </trkpt>
      <trkpt lat="43.4092" lon="5.48302">
        <ele>545.4</ele>
        <time>2024-02-14T15:37:58+01:00</time>
      </trkpt>
      <trkpt lat="43.40915" lon="5.48315">
        <ele>546.1</ele>
        <time>2024-02-14T15:38:08+01:00</time>
      </trkpt>
      <trkpt lat="43.40914" lon="5.48329">
        <ele>544.1</ele>
        <time>2024-02-14T15:38:18+01:00</time>
      </trkpt>
      <trkpt lat="43.40911" lon="5.4834">
        <ele>543.4</ele>
        <time>2024-02-14T15:38:29+01:00</time>
      </trkpt>
      <trkpt lat="43.40909" lon="5.48353">
        <ele>542.7</ele>
        <time>2024-02-14T15:38:38+01:00</time>
      </trkpt>
      <trkpt lat="43.40908" lon="5.48366">
        <ele>541.7</ele>
        <time>2024-02-14T15:38:49+01:00</time>
      </trkpt>
      <trkpt lat="43.40906" lon="5.48379">
        <ele>542.4</ele>
        <time>2024-02-14T15:38:59+01:00</time>
      </trkpt>
      <trkpt lat="43.40905" lon="5.48392">
        <ele>542.8</ele>
        <time>2024-02-14T15:39:09+01:00</time>
      </trkpt>
      <trkpt lat="43.40907" lon="5.48405">
        <ele>542</ele>
        <time>2024-02-14T15:39:20+01:00</time>
      </trkpt>
      <trkpt lat="43.40909" lon="5.48417">
        <ele>540.5</ele>
        <time>2024-02-14T15:39:35+01:00</time>
      </trkpt>
      <trkpt lat="43.40914" lon="5.48429">
        <ele>538.6</ele>
        <time>2024-02-14T15:39:50+01:00</time>
      </trkpt>
      <trkpt lat="43.40918" lon="5.4844">
        <ele>537.2</ele>
        <time>2024-02-14T15:40:06+01:00</time>
      </trkpt>
      <trkpt lat="43.40923" lon="5.4845">
        <ele>536</ele>
        <time>2024-02-14T15:40:21+01:00</time>
      </trkpt>
      <trkpt lat="43.40929" lon="5.48461">
        <ele>535</ele>
        <time>2024-02-14T15:40:34+01:00</time>
      </trkpt>
      <trkpt lat="43.40935" lon="5.48471">
        <ele>534.1</ele>
        <time>2024-02-14T15:40:47+01:00</time>
      </trkpt>
      <trkpt lat="43.4094" lon="5.48483">
        <ele>534.2</ele>
        <time>2024-02-14T15:41:01+01:00</time>
      </trkpt>
      <trkpt lat="43.40946" lon="5.48493">
        <ele>533.6</ele>
        <time>2024-02-14T15:41:12+01:00</time>
      </trkpt>
      <trkpt lat="43.40954" lon="5.48499">
        <ele>531.8</ele>
        <time>2024-02-14T15:41:24+01:00</time>
      </trkpt>
      <trkpt lat="43.40961" lon="5.48509">
        <ele>530.6</ele>
        <time>2024-02-14T15:41:38+01:00</time>
      </trkpt>
      <trkpt lat="43.40968" lon="5.48517">
        <ele>529.2</ele>
        <time>2024-02-14T15:41:56+01:00</time>
      </trkpt>
      <trkpt lat="43.40974" lon="5.48526">
        <ele>527.5</ele>
        <time>2024-02-14T15:42:08+01:00</time>
      </trkpt>
      <trkpt lat="43.4098" lon="5.48536">
        <ele>525.2</ele>
        <time>2024-02-14T15:42:28+01:00</time>
      </trkpt>
      <trkpt lat="43.40984" lon="5.48548">
        <ele>523.6</ele>
        <time>2024-02-14T15:42:44+01:00</time>
      </trkpt>
      <trkpt lat="43.40984" lon="5.48562">
        <ele>523.6</ele>
        <time>2024-02-14T15:43:01+01:00</time>
      </trkpt>
      <trkpt lat="43.40987" lon="5.48574">
        <ele>522.6</ele>
        <time>2024-02-14T15:43:17+01:00</time>
      </trkpt>
      <trkpt lat="43.40989" lon="5.48589">
        <ele>522.4</ele>
        <time>2024-02-14T15:43:55+01:00</time>
      </trkpt>
      <trkpt lat="43.4099" lon="5.48601">
        <ele>523.1</ele>
        <time>2024-02-14T15:44:07+01:00</time>
      </trkpt>
      <trkpt lat="43.40992" lon="5.48614">
        <ele>523.7</ele>
        <time>2024-02-14T15:44:16+01:00</time>
      </trkpt>
      <trkpt lat="43.40993" lon="5.48627">
        <ele>524.6</ele>
        <time>2024-02-14T15:44:26+01:00</time>
      </trkpt>
      <trkpt lat="43.40993" lon="5.48641">
        <ele>525.8</ele>
        <time>2024-02-14T15:44:35+01:00</time>
      </trkpt>
      <trkpt lat="43.40989" lon="5.48653">
        <ele>527.7</ele>
        <time>2024-02-14T15:47:58+01:00</time>
      </trkpt>
      <trkpt lat="43.40991" lon="5.48665">
        <ele>526.6</ele>
        <time>2024-02-14T15:48:31+01:00</time>
      </trkpt>
      <trkpt lat="43.40991" lon="5.48652">
        <ele>526.4</ele>
        <time>2024-02-14T15:54:45+01:00</time>
      </trkpt>
      <trkpt lat="43.40988" lon="5.48639">
        <ele>528.1</ele>
        <time>2024-02-14T15:55:44+01:00</time>
      </trkpt>
      <trkpt lat="43.4099" lon="5.48651">
        <ele>527.1</ele>
        <time>2024-02-14T15:56:07+01:00</time>
      </trkpt>
      <trkpt lat="43.40992" lon="5.48664">
        <ele>526</ele>
        <time>2024-02-14T15:56:19+01:00</time>
      </trkpt>
      <trkpt lat="43.40995" lon="5.48676">
        <ele>525.3</ele>
        <time>2024-02-14T15:56:32+01:00</time>
      </trkpt>
      <trkpt lat="43.40995" lon="5.48689">
        <ele>525.9</ele>
        <time>2024-02-14T15:56:40+01:00</time>
      </trkpt>
      <trkpt lat="43.40994" lon="5.48702">
        <ele>527.4</ele>
        <time>2024-02-14T15:56:49+01:00</time>
      </trkpt>
      <trkpt lat="43.40997" lon="5.48715">
        <ele>527.7</ele>
        <time>2024-02-14T15:56:59+01:00</time>
      </trkpt>
      <trkpt lat="43.40995" lon="5.48729">
        <ele>529.7</ele>
        <time>2024-02-14T15:57:15+01:00</time>
      </trkpt>
      <trkpt lat="43.40997" lon="5.48742">
        <ele>529.4</ele>
        <time>2024-02-14T15:58:20+01:00</time>
      </trkpt>
      <trkpt lat="43.40995" lon="5.48755">
        <ele>530.2</ele>
        <time>2024-02-14T15:58:30+01:00</time>
      </trkpt>
      <trkpt lat="43.40991" lon="5.48767">
        <ele>531.1</ele>
        <time>2024-02-14T15:58:39+01:00</time>
      </trkpt>
      <trkpt lat="43.40989" lon="5.48779">
        <ele>531.5</ele>
        <time>2024-02-14T15:58:49+01:00</time>
      </trkpt>
      <trkpt lat="43.40986" lon="5.48792">
        <ele>534</ele>
        <time>2024-02-14T15:59:00+01:00</time>
      </trkpt>
      <trkpt lat="43.40985" lon="5.48805">
        <ele>535.2</ele>
        <time>2024-02-14T15:59:10+01:00</time>
      </trkpt>
      <trkpt lat="43.40988" lon="5.48816">
        <ele>535.5</ele>
        <time>2024-02-14T15:59:18+01:00</time>
      </trkpt>
      <trkpt lat="43.40992" lon="5.48828">
        <ele>535.7</ele>
        <time>2024-02-14T15:59:27+01:00</time>
      </trkpt>
      <trkpt lat="43.40999" lon="5.48838">
        <ele>534.2</ele>
        <time>2024-02-14T15:59:35+01:00</time>
      </trkpt>
      <trkpt lat="43.41001" lon="5.48851">
        <ele>534.5</ele>
        <time>2024-02-14T15:59:43+01:00</time>
      </trkpt>
      <trkpt lat="43.41003" lon="5.48863">
        <ele>535</ele>
        <time>2024-02-14T15:59:51+01:00</time>
      </trkpt>
      <trkpt lat="43.41005" lon="5.48875">
        <ele>534.9</ele>
        <time>2024-02-14T15:59:59+01:00</time>
      </trkpt>
      <trkpt lat="43.41005" lon="5.48888">
        <ele>535.5</ele>
        <time>2024-02-14T16:00:06+01:00</time>
      </trkpt>
      <trkpt lat="43.41008" lon="5.48901">
        <ele>534.5</ele>
        <time>2024-02-14T16:00:14+01:00</time>
      </trkpt>
      <trkpt lat="43.41011" lon="5.48913">
        <ele>533.3</ele>
        <time>2024-02-14T16:00:22+01:00</time>
      </trkpt>
      <trkpt lat="43.41011" lon="5.48926">
        <ele>533.7</ele>
        <time>2024-02-14T16:00:30+01:00</time>
      </trkpt>
      <trkpt lat="43.41015" lon="5.48938">
        <ele>533.3</ele>
        <time>2024-02-14T16:00:38+01:00</time>
      </trkpt>
      <trkpt lat="43.41019" lon="5.4895">
        <ele>532.8</ele>
        <time>2024-02-14T16:00:47+01:00</time>
      </trkpt>
      <trkpt lat="43.41025" lon="5.4896">
        <ele>531.2</ele>
        <time>2024-02-14T16:00:54+01:00</time>
      </trkpt>
      <trkpt lat="43.41028" lon="5.48973">
        <ele>531.2</ele>
        <time>2024-02-14T16:01:02+01:00</time>
      </trkpt>
      <trkpt lat="43.41031" lon="5.48986">
        <ele>530.8</ele>
        <time>2024-02-14T16:01:10+01:00</time>
      </trkpt>
      <trkpt lat="43.41033" lon="5.48999">
        <ele>531.8</ele>
        <time>2024-02-14T16:01:17+01:00</time>
      </trkpt>
      <trkpt lat="43.41034" lon="5.49012">
        <ele>532.6</ele>
        <time>2024-02-14T16:01:27+01:00</time>
      </trkpt>
      <trkpt lat="43.41036" lon="5.49025">
        <ele>532.9</ele>
        <time>2024-02-14T16:01:36+01:00</time>
      </trkpt>
      <trkpt lat="43.41042" lon="5.49037">
        <ele>532.6</ele>
        <time>2024-02-14T16:01:45+01:00</time>
      </trkpt>
      <trkpt lat="43.41047" lon="5.49047">
        <ele>532.3</ele>
        <time>2024-02-14T16:01:54+01:00</time>
      </trkpt>
      <trkpt lat="43.41054" lon="5.49057">
        <ele>531.5</ele>
        <time>2024-02-14T16:02:04+01:00</time>
      </trkpt>
      <trkpt lat="43.4106" lon="5.49067">
        <ele>530.8</ele>
        <time>2024-02-14T16:02:13+01:00</time>
      </trkpt>
      <trkpt lat="43.4106" lon="5.49079">
        <ele>531.7</ele>
        <time>2024-02-14T16:02:28+01:00</time>
      </trkpt>
      <trkpt lat="43.41069" lon="5.49086">
        <ele>530.5</ele>
        <time>2024-02-14T16:02:47+01:00</time>
      </trkpt>
      <trkpt lat="43.41074" lon="5.49096">
        <ele>530.4</ele>
        <time>2024-02-14T16:02:57+01:00</time>
      </trkpt>
      <trkpt lat="43.4108" lon="5.49105">
        <ele>529.5</ele>
        <time>2024-02-14T16:03:08+01:00</time>
      </trkpt>
    </trkseg>
  </trk>
</gpx>